Flight Track Log - Related Links

Times and Time Zones

All times are in EDT time to prevent confusion due to time zone crossing. See the CLX861 flight status page for this flight to view local times or setup timezone preferences in your user account.

Time Position Orientation Groundspeed Altitude Reporting Facility
EDT Latitude Longitude Course Direction KTS MPH feet Rate Location/Type
Sun 09:26:11 AM 29.9544 -95.3374 152° Southeast 172 198 600  Level FlightAware ADS-B
Sun 09:26:16 AM 29.9505 -95.3349 151° Southeast 169 194 800 1,800 Climbing FlightAware ADS-B
Sun 09:26:21 AM 29.9479 -95.3324 140° Southeast 171 197 900 1,200 Climbing FlightAware ADS-B
Sun 09:26:26 AM 29.9454 -95.3289 129° Southeast 173 199 1,000 1,333 Climbing FlightAware ADS-B
Sun 09:26:30 AM 29.9438 -95.3249 115° Southeast 174 200 1,100 1,500 Climbing FlightAware ADS-B
Sun 09:26:34 AM 29.9432 -95.3218 103° East 174 200 1,200 1,800 Climbing FlightAware ADS-B
Sun 09:26:40 AM 29.9431 -95.3164 91° East 175 201 1,400 1,800 Climbing FlightAware ADS-B
Sun 09:26:44 AM 29.9439 -95.3125 77° East 178 205 1,500 1,714 Climbing FlightAware ADS-B
Sun 09:26:47 AM 29.9448 -95.3098 69° East 180 207 1,600 400 Climbing FlightAware ADS-B
Sun 09:26:59 AM 29.9513 -95.3007 50° Northeast 195 224 1,600  Level FlightAware ADS-B
Sun 09:27:02 AM 29.9539 -95.2987 34° Northeast 203 234 1,600  Level FlightAware ADS-B
Sun 09:27:06 AM 29.9568 -95.2969 28° Northeast 208 239 1,600 600 Level FlightAware ADS-B
Sun 09:27:22 AM 29.9723 -95.2899 21° North 223 257 1,800 818 Climbing FlightAware ADS-B
Sun 09:27:28 AM 29.9787 -95.2874 19° North 232 267 1,900 857 Climbing FlightAware ADS-B
Sun 09:27:43 AM 29.9944 -95.2815 18° North 243 280 2,100 909 Climbing FlightAware ADS-B
Sun 09:28:01 AM 30.0141 -95.2740 18° North 255 293 2,400 1,071 Climbing FlightAware ADS-B
Sun 09:28:11 AM 30.0244 -95.2697 20° North 264 304 2,600 1,286 Climbing FlightAware ADS-B
Sun 09:28:29 AM 30.0457 -95.2605 20° North 279 321 3,000 1,235 Climbing FlightAware ADS-B
Sun 09:28:45 AM 30.0661 -95.2515 21° North 291 335 3,300 960 Climbing FlightAware ADS-B
Sun 09:28:54 AM 30.0775 -95.2462 22° Northeast 293 337 3,400 857 Climbing FlightAware ADS-B
Sun 09:29:06 AM 30.0926 -95.2385 24° Northeast 296 341 3,600 1,000 Climbing FlightAware ADS-B
Sun 09:29:12 AM 30.1004 -95.2340 27° Northeast 297 342 3,700 1,200 Climbing FlightAware ADS-B
Sun 09:29:16 AM 30.1047 -95.2313 29° Northeast 298 343 3,800 1,500 Climbing FlightAware ADS-B
Sun 09:29:24 AM 30.1143 -95.2250 30° Northeast 303 349 4,000 2,348 Climbing FlightAware ADS-B
Sun 09:29:39 AM 30.1319 -95.2120 33° Northeast 301 346 4,700 2,364 Climbing FlightAware ADS-B
Sun 09:29:57 AM 30.1541 -95.1954 33° Northeast 309 356 5,300 2,318 Climbing FlightAware ADS-B
Sun 09:30:23 AM 30.1846 -95.1722 33° Northeast 312 359 6,400 2,429 Climbing FlightAware ADS-B
Sun 09:30:39 AM 30.2037 -95.1579 33° Northeast 313 360 7,000 2,438 Climbing FlightAware ADS-B
Sun 09:30:55 AM 30.2234 -95.1425 34° Northeast 316 364 7,700 2,444 Climbing FlightAware ADS-B
Sun 09:31:06 AM 30.2368 -95.1322 34° Northeast 318 366 8,100 2,250 Climbing FlightAware ADS-B
Sun 09:31:27 AM 30.2636 -95.1123 33° Northeast 321 369 8,900 2,250 Climbing FlightAware ADS-B
Sun 09:31:38 AM 30.2766 -95.1025 33° Northeast 321 369 9,300 2,222 Climbing FlightAware ADS-B
Sun 09:31:54 AM 30.2964 -95.0878 33° Northeast 323 372 9,900 1,565 Climbing FlightAware ADS-B
Sun 09:32:24 AM 30.3360 -95.0575 33° Northeast 345 397 10,500 1,000 Climbing FlightAware ADS-B
Sun 09:32:54 AM 30.3776 -95.0261 33° Northeast 371 427 10,900 900 Climbing FlightAware ADS-B
Sun 09:33:24 AM 30.4228 -94.9918 33° Northeast 395 455 11,400 1,475 Climbing FlightAware ADS-B
Sun 09:33:55 AM 30.4699 -94.9558 33° Northeast 402 463 12,400 1,770 Climbing FlightAware ADS-B
Sun 09:34:25 AM 30.5176 -94.9193 33° Northeast 413 475 13,200 1,900 Climbing FlightAware ADS-B
Sun 09:34:55 AM 30.5654 -94.8823 34° Northeast 414 476 14,300 1,869 Climbing FlightAware ADS-B
Sun 09:35:26 AM 30.6147 -94.8444 33° Northeast 422 486 15,100 1,672 Climbing FlightAware ADS-B
Sun 09:35:56 AM 30.6641 -94.8066 33° Northeast 425 489 16,000 1,662 Climbing FlightAware ADS-B
Sun 09:36:31 AM 30.7218 -94.7620 34° Northeast 434 499 16,900 1,612 Climbing FlightAware ADS-B
Sun 09:37:03 AM 30.7755 -94.7206 34° Northeast 441 507 17,800 1,548 Climbing FlightAware ADS-B
Sun 09:37:33 AM 30.8278 -94.6804 33° Northeast 447 514 18,500 1,500 Climbing FlightAware ADS-B
Sun 09:38:03 AM 30.8803 -94.6400 33° Northeast 452 520 19,300 1,091 Climbing FlightAware ADS-B
Sun 09:38:28 AM 30.8977 -94.6266 33° Northeast 457 526 19,500 1,355 Climbing FlightAware ADS-B
Sun 09:38:34 AM 30.9336 -94.5989 33° Northeast 457 526 20,000 2,167 Climbing FlightAware ADS-B
Sun 09:39:04 AM 30.9869 -94.5575 34° Northeast 459 528 20,800 1,459 Climbing FlightAware ADS-B
Sun 09:39:11 AM 30.9992 -94.5480 34° Northeast 461 531 20,900 1,200 Climbing FlightAware ADS-B
Sun 09:39:34 AM 31.0409 -94.5155 34° Northeast 464 534 21,400 1,400 Climbing FlightAware ADS-B
Sun 09:39:41 AM 31.0526 -94.5057 36° Northeast 468 539 21,600 1,500 Climbing FlightAware ADS-B
Sun 09:39:42 AM 31.0553 -94.5032 38° Northeast 469 540 21,600 667 Level FlightAware ADS-B
Sun 09:39:50 AM 31.0673 -94.4911 41° Northeast 477 549 21,700 667 Climbing FlightAware ADS-B
Sun 09:39:51 AM 31.0695 -94.4886 44° Northeast 477 549 21,700 1,500 Level FlightAware ADS-B
Sun 09:40:02 AM 31.0863 -94.4664 49° Northeast 486 559 22,000 1,333 Climbing FlightAware ADS-B
Sun 09:40:09 AM 31.0955 -94.4513 55° Northeast 491 565 22,100 1,200 Climbing FlightAware ADS-B
Sun 09:40:12 AM 31.0981 -94.4467 57° Northeast 493 567 22,200 1,385 Climbing FlightAware ADS-B
Sun 09:40:22 AM 31.1095 -94.4207 63° Northeast 500 575 22,400 857 Climbing FlightAware ADS-B
Sun 09:40:26 AM 31.1131 -94.4105 68° East 503 579 22,400 500 Level FlightAware ADS-B
Sun 09:40:34 AM 31.1181 -94.3915 73° East 507 583 22,500 857 Climbing FlightAware ADS-B
Sun 09:40:47 AM 31.1234 -94.3556 80° East 514 592 22,700 955 Climbing FlightAware ADS-B
Sun 09:41:18 AM 31.1307 -94.2702 84° East 520 598 23,200 1,125 Climbing FlightAware ADS-B
Sun 09:41:19 AM 31.1310 -94.2669 84° East 520 598 23,300 1,200 Climbing FlightAware ADS-B
Sun 09:41:48 AM 31.1372 -94.1840 85° East 526 605 23,800 900 Climbing FlightAware ADS-B
Sun 09:42:39 AM 31.1478 -94.0390 85° East 537 618 24,500 878 Climbing FlightAware ADS-B
Sun 09:43:10 AM 31.1545 -93.9506 85° East 542 624 25,000 971 Climbing FlightAware ADS-B
Sun 09:43:47 AM 31.1626 -93.8426 85° East 546 628 25,600 971 Climbing FlightAware ADS-B
Sun 09:44:18 AM 31.1694 -93.7517 85° East 549 632 26,100 889 Climbing FlightAware ADS-B
Sun 09:45:08 AM 31.1805 -93.6024 85° East 558 642 26,800 750 Climbing FlightAware ADS-B
Sun 09:45:38 AM 31.1873 -93.5109 85° East 565 650 27,100 750 Climbing FlightAware ADS-B
Sun 09:46:12 AM 31.1949 -93.4066 85° East 567 652 27,600 806 Climbing FlightAware ADS-B
Sun 09:46:45 AM 31.2020 -93.3058 85° East 576 663 28,000 857 Climbing FlightAware ADS-B
Sun 09:47:36 AM 31.2131 -93.1489 85° East 577 664 28,800 963 Climbing FlightAware ADS-B
Sun 09:48:06 AM 31.2197 -93.0538 85° East 579 666 29,300 984 Climbing FlightAware ADS-B
Sun 09:48:37 AM 31.2264 -92.9563 85° East 581 669 29,800 1,065 Climbing FlightAware ADS-B
Sun 09:49:08 AM 31.2329 -92.8620 85° East 581 669 30,400 984 Climbing FlightAware ADS-B
Sun 09:49:38 AM 31.2393 -92.7670 85° East 582 670 30,800 590 Climbing FlightAware ADS-B
Sun 09:50:09 AM 31.2458 -92.6699 85° East 586 674 31,000 176 Climbing FlightAware ADS-B
Sun 09:50:46 AM 31.2561 -92.5534 84° East 582 670 31,000  Level FlightAware ADS-B
Sun 09:51:01 AM 31.2670 -92.5087 74° East 576 663 31,000  Level FlightAware ADS-B
Sun 09:51:29 AM 31.2998 -92.4319 63° Northeast 562 647 31,000  Level FlightAware ADS-B
Sun 09:52:31 AM 31.3955 -92.2820 53° Northeast 558 642 31,000  Level FlightAware ADS-B
Sun 09:53:15 AM 31.4635 -92.1780 53° Northeast 555 639 31,000  Level FlightAware ADS-B
Sun 09:54:06 AM 31.5427 -92.0550 53° Northeast 556 640 31,000  Level FlightAware ADS-B
Sun 09:54:41 AM 31.5970 -91.9696 53° Northeast 556 640 31,000  Level FlightAware ADS-B
Sun 09:55:14 AM 31.6463 -91.8916 53° Northeast 556 640 31,000  Level FlightAware ADS-B
Sun 09:55:45 AM 31.6903 -91.8222 53° Northeast 556 640 31,000  Level Houston Center
Sun 09:56:46 AM 31.7811 -91.6772 54° Northeast 554 638 31,000  Level Houston Center
Sun 09:57:48 AM 31.8725 -91.5328 53° Northeast 551 634 31,000  Level Houston Center
Sun 09:58:49 AM 31.9622 -91.3878 54° Northeast 549 632 31,000  Level Houston Center
Sun 09:59:50 AM 32.0525 -91.2433 54° Northeast 549 632 31,000  Level Houston Center
Sun 10:00:52 AM 32.1425 -91.0994 54° Northeast 546 628 31,000  Level Houston Center
Sun 10:01:46 AM 32.2194 -90.9711 55° Northeast 543 625 31,000  Level Memphis Center
Sun 10:02:46 AM 32.3100 -90.8244 54° Northeast 543 625 31,000  Level Memphis Center
Sun 10:03:46 AM 32.3981 -90.6844 53° Northeast 538 619 31,000  Level Memphis Center
Sun 10:04:46 AM 32.4839 -90.5394 55° Northeast 538 619 31,000  Level Memphis Center
Sun 10:05:46 AM 32.5758 -90.3942 53° Northeast 538 619 31,000  Level Memphis Center
Sun 10:06:46 AM 32.6614 -90.2486 55° Northeast 538 619 31,000  Level Memphis Center
Sun 10:07:46 AM 32.7511 -90.1028 54° Northeast 538 619 31,000  Level Memphis Center
Sun 10:08:46 AM 32.8486 -89.9419 54° Northeast 538 619 31,000  Level Memphis Center
Sun 10:09:46 AM 32.9378 -89.7928 55° Northeast 538 619 31,000  Level Memphis Center
Sun 10:10:46 AM 33.0269 -89.6461 54° Northeast 543 625 31,000  Level Memphis Center
Sun 10:11:46 AM 33.1075 -89.5139 54° Northeast 543 625 31,000  Level Memphis Center
Sun 10:12:46 AM 33.1939 -89.3642 55° Northeast 543 625 31,000  Level Memphis Center
Sun 10:13:46 AM 33.2825 -89.2192 54° Northeast 543 625 31,000  Level Memphis Center
Sun 10:14:46 AM 33.3708 -89.0686 55° Northeast 543 625 31,000  Level Memphis Center
Sun 10:15:46 AM 33.4547 -88.9206 56° Northeast 543 625 31,000  Level Memphis Center
Sun 10:16:46 AM 33.4861 -88.7506 77° East 519 597 31,000  Level Memphis Center
Sun 10:17:46 AM 33.4878 -88.5739 89° East 518 596 31,000  Level Memphis Center
Sun 10:18:46 AM 33.4956 -88.3942 87° East 523 602 31,000  Level Memphis Center
Sun 10:19:46 AM 33.5217 -88.2117 80° East 541 623 31,000 457 Level Memphis Center
Sun 10:22:29 AM 33.5789 -87.7042 82° East 545 627 32,700 538 Climbing Atlanta Center
Sun 10:23:29 AM 33.5989 -87.5228 82° East 545 627 33,000 150 Climbing Atlanta Center
Sun 10:24:29 AM 33.6208 -87.3342 82° East 556 640 33,000  Level Atlanta Center
Sun 10:30:03 AM 34.0132 -86.4563 82° East 555 639 33,000  Level FlightAware ADS-B
Sun 10:30:47 AM 34.0899 -86.3564 47° Northeast 554 638 33,000  Level FlightAware ADS-B
Sun 10:31:17 AM 34.1420 -86.2881 47° Northeast 553 636 33,000  Level FlightAware ADS-B
Sun 10:31:54 AM 34.2059 -86.2038 47° Northeast 552 635 33,000  Level FlightAware ADS-B
Sun 10:32:25 AM 34.2586 -86.1343 47° Northeast 551 634 33,000  Level FlightAware ADS-B
Sun 10:32:55 AM 34.3103 -86.0659 48° Northeast 551 634 33,000  Level FlightAware ADS-B
Sun 10:33:25 AM 34.3621 -85.9974 47° Northeast 549 632 33,000  Level FlightAware ADS-B
Sun 10:33:57 AM 34.4158 -85.9261 48° Northeast 549 632 33,000  Level FlightAware ADS-B
Sun 10:34:33 AM 34.4782 -85.8433 48° Northeast 547 629 33,000  Level FlightAware ADS-B
Sun 10:35:03 AM 34.5291 -85.7758 48° Northeast 545 627 33,000  Level FlightAware ADS-B
Sun 10:35:37 AM 34.5863 -85.6995 48° Northeast 544 626 33,000  Level FlightAware ADS-B
Sun 10:36:08 AM 34.6395 -85.6284 48° Northeast 542 624 33,000  Level FlightAware ADS-B
Sun 10:36:39 AM 34.6906 -85.5602 48° Northeast 539 620 33,000  Level FlightAware ADS-B
Sun 10:37:21 AM 34.7606 -85.4664 48° Northeast 540 621 33,000  Level FlightAware ADS-B
Sun 10:38:13 AM 34.8482 -85.3486 48° Northeast 540 621 33,000  Level FlightAware ADS-B
Sun 10:38:53 AM 34.9154 -85.2578 48° Northeast 541 623 33,000  Level FlightAware ADS-B
Sun 10:39:26 AM 34.9705 -85.1834 48° Northeast 542 624 33,000  Level FlightAware ADS-B
Sun 10:39:57 AM 35.0223 -85.1133 48° Northeast 543 625 33,000  Level FlightAware ADS-B
Sun 10:40:28 AM 35.0743 -85.0427 48° Northeast 543 625 33,000  Level FlightAware ADS-B
Sun 10:41:11 AM 35.1461 -84.9450 48° Northeast 544 626 33,000  Level FlightAware ADS-B
Sun 10:41:41 AM 35.1970 -84.8756 48° Northeast 543 625 33,000  Level FlightAware ADS-B
Sun 10:42:11 AM 35.2472 -84.8070 48° Northeast 543 625 33,000  Level FlightAware ADS-B
Sun 10:42:41 AM 35.2978 -84.7376 48° Northeast 543 625 33,000  Level FlightAware ADS-B
Sun 10:43:11 AM 35.3477 -84.6691 48° Northeast 543 625 33,000  Level FlightAware ADS-B
Sun 10:43:42 AM 35.3982 -84.5996 48° Northeast 542 624 33,000  Level FlightAware ADS-B
Sun 10:44:12 AM 35.4491 -84.5295 48° Northeast 542 624 33,000  Level FlightAware ADS-B
Sun 10:44:42 AM 35.4910 -84.4720 48° Northeast 536 617 33,000  Level FlightAware ADS-B
Sun 10:44:43 AM 35.4994 -84.4599 50° Northeast 542 624 33,000  Level FlightAware ADS-B
Sun 10:45:13 AM 35.5492 -84.3909 48° Northeast 541 623 33,000  Level FlightAware ADS-B
Sun 10:45:43 AM 35.6003 -84.3202 48° Northeast 541 623 33,000  Level FlightAware ADS-B
Sun 10:46:14 AM 35.6505 -84.2504 48° Northeast 541 623 33,000  Level FlightAware ADS-B
Sun 10:46:44 AM 35.7003 -84.1810 49° Northeast 541 623 33,000  Level FlightAware ADS-B
Sun 10:47:14 AM 35.7508 -84.1106 49° Northeast 543 625 33,000  Level FlightAware ADS-B
Sun 10:47:45 AM 35.8008 -84.0405 49° Northeast 544 626 33,000  Level FlightAware ADS-B
Sun 10:48:15 AM 35.8508 -83.9705 49° Northeast 545 627 33,000  Level FlightAware ADS-B
Sun 10:48:34 AM 35.8823 -83.9234 50° Northeast 545 627 33,000  Level FlightAware ADS-B
Sun 10:48:45 AM 35.8968 -83.8977 55° Northeast 546 628 33,000  Level FlightAware ADS-B
Sun 10:49:16 AM 35.9364 -83.8117 60° Northeast 546 628 33,000  Level FlightAware ADS-B
Sun 10:49:47 AM 35.9709 -83.7270 63° Northeast 545 627 33,000  Level FlightAware ADS-B
Sun 10:50:17 AM 36.0041 -83.6423 64° Northeast 545 627 33,000  Level FlightAware ADS-B
Sun 10:50:48 AM 36.0374 -83.5562 64° Northeast 546 628 33,000  Level FlightAware ADS-B
Sun 10:51:18 AM 36.0701 -83.4710 65° Northeast 546 628 33,000  Level FlightAware ADS-B
Sun 10:51:48 AM 36.1024 -83.3865 65° Northeast 546 628 33,000  Level FlightAware ADS-B
Sun 10:52:19 AM 36.1359 -83.2991 65° Northeast 546 628 33,000  Level FlightAware ADS-B
Sun 10:52:50 AM 36.1691 -83.2120 65° Northeast 547 629 33,000  Level FlightAware ADS-B
Sun 10:53:23 AM 36.2043 -83.1199 65° Northeast 547 629 33,000  Level FlightAware ADS-B
Sun 10:53:53 AM 36.2370 -83.0338 65° Northeast 548 631 33,000  Level FlightAware ADS-B
Sun 10:54:23 AM 36.2697 -82.9477 65° Northeast 548 631 33,000  Level FlightAware ADS-B
Sun 10:54:57 AM 36.3061 -82.8516 65° Northeast 548 631 33,000  Level FlightAware ADS-B
Sun 10:55:29 AM 36.3402 -82.7611 65° Northeast 547 629 33,000  Level FlightAware ADS-B
Sun 10:55:59 AM 36.3725 -82.6755 65° Northeast 547 629 33,000  Level FlightAware ADS-B
Sun 10:56:30 AM 36.4046 -82.5900 65° Northeast 547 629 33,000  Level FlightAware ADS-B
Sun 10:57:19 AM 36.4570 -82.4498 65° Northeast 547 629 33,000  Level FlightAware ADS-B
Sun 10:57:49 AM 36.4896 -82.3627 65° Northeast 549 632 33,000  Level FlightAware ADS-B
Sun 10:58:20 AM 36.5221 -82.2752 65° Northeast 549 632 33,000  Level FlightAware ADS-B
Sun 10:58:50 AM 36.5543 -82.1884 65° Northeast 550 633 33,000  Level FlightAware ADS-B
Sun 10:59:22 AM 36.5873 -82.0989 65° Northeast 550 633 33,000  Level FlightAware ADS-B
Sun 11:00:06 AM 36.6345 -81.9708 65° Northeast 551 634 33,000  Level FlightAware ADS-B
Sun 11:01:24 AM 36.7169 -81.7461 65° Northeast 551 634 33,000  Level FlightAware ADS-B
Sun 11:01:58 AM 36.7530 -81.6470 66° East 551 634 33,000  Level FlightAware ADS-B
Sun 11:02:29 AM 36.7848 -81.5594 66° East 551 634 33,000  Level FlightAware ADS-B
Sun 11:03:24 AM 36.8430 -81.3987 66° East 551 634 33,000  Level FlightAware ADS-B
Sun 11:04:01 AM 36.8812 -81.2928 66° East 550 633 33,000  Level FlightAware ADS-B
Sun 11:04:34 AM 36.9158 -81.1964 66° East 550 633 33,000  Level FlightAware ADS-B
Sun 11:05:07 AM 36.9494 -81.1024 66° East 550 633 33,000  Level FlightAware ADS-B
Sun 11:06:16 AM 37.0092 -80.9319 66° East 549 632 33,000  Level Washington Center
Sun 11:07:16 AM 37.0711 -80.7567 66° East 549 632 33,000  Level Washington Center
Sun 11:08:16 AM 37.1469 -80.5922 60° Northeast 549 632 33,000  Level Washington Center
Sun 11:09:16 AM 37.2328 -80.4336 56° Northeast 544 626 33,000  Level Washington Center
Sun 11:10:16 AM 37.3253 -80.2567 57° Northeast 552 635 33,000  Level Washington Center
Sun 11:11:16 AM 37.4086 -80.0942 57° Northeast 547 629 33,000  Level Washington Center
Sun 11:17:12 AM 37.8940 -79.1200 57° Northeast 552 635 33,000  Level FlightAware ADS-B
Sun 11:17:52 AM 37.9550 -79.0110 55° Northeast 554 638 33,000  Level FlightAware ADS-B
Sun 11:18:32 AM 38.0190 -78.9090 51° Northeast 548 631 33,000  Level FlightAware ADS-B
Sun 11:19:07 AM 38.0710 -78.8260 51° Northeast 552 635 33,000  Level FlightAware ADS-B
Sun 11:19:52 AM 38.1380 -78.7210 51° Northeast 552 635 33,000  Level FlightAware ADS-B
Sun 11:21:12 AM 38.2620 -78.5080 53° Northeast 543 625 33,000  Level FlightAware ADS-B
Sun 11:21:47 AM 38.3210 -78.4090 53° Northeast 543 625 33,000  Level FlightAware ADS-B
Sun 11:22:32 AM 38.3850 -78.3000 53° Northeast 543 625 33,000  Level FlightAware ADS-B
Sun 11:23:12 AM 38.4490 -78.1930 53° Northeast 549 632 33,000  Level FlightAware ADS-B
Sun 11:23:57 AM 38.5120 -78.0850 53° Northeast 550 633 33,000  Level FlightAware ADS-B
Sun 11:24:47 AM 38.5930 -77.9470 53° Northeast 550 633 33,000  Level FlightAware ADS-B
Sun 11:25:38 AM 38.6925 -77.8088 47° Northeast 550 633 33,000  Level FlightAware ADS-B
Sun 11:26:02 AM 38.7397 -77.7606 39° Northeast 548 631 33,000  Level FlightAware ADS-B
Sun 11:26:33 AM 38.8054 -77.7022 35° Northeast 546 628 33,000  Level FlightAware ADS-B
Sun 11:26:37 AM 38.8146 -77.6964 26° Northeast 538 619 33,000  Level FlightAware ADS-B
Sun 11:27:12 AM 38.8944 -77.6559 22° Northeast 531 611 33,000  Level FlightAware ADS-B
Sun 11:27:42 AM 38.9470 -77.6310 20° North 529 609 33,000  Level FlightAware ADS-B
Sun 11:27:54 AM 38.9897 -77.6100 21° North 529 609 33,000  Level FlightAware ADS-B
Sun 11:28:33 AM 39.0784 -77.5674 20° North 527 606 33,000  Level FlightAware ADS-B
Sun 11:29:06 AM 39.1547 -77.5305 21° North 525 604 33,000  Level FlightAware ADS-B
Sun 11:29:24 AM 39.1951 -77.5100 21° North 527 606 33,000  Level FlightAware ADS-B
Sun 11:29:32 AM 39.2113 -77.4997 26° Northeast 530 610 33,000  Level FlightAware ADS-B
Sun 11:30:00 AM 39.2697 -77.4486 34° Northeast 539 620 33,000  Level FlightAware ADS-B
Sun 11:30:11 AM 39.2887 -77.4258 43° Northeast 542 624 33,000  Level FlightAware ADS-B
Sun 11:30:24 AM 39.3115 -77.3926 48° Northeast 544 626 33,000  Level FlightAware ADS-B
Sun 11:30:34 AM 39.3266 -77.3658 54° Northeast 546 628 33,000  Level FlightAware ADS-B
Sun 11:31:05 AM 39.3649 -77.2803 60° Northeast 546 628 33,000  Level FlightAware ADS-B
Sun 11:31:31 AM 39.3982 -77.2065 60° Northeast 544 626 33,000  Level FlightAware ADS-B
Sun 11:32:01 AM 39.4466 -77.1320 50° Northeast 541 623 33,000  Level FlightAware ADS-B
Sun 11:32:32 AM 39.4975 -77.0589 48° Northeast 541 623 33,000  Level FlightAware ADS-B
Sun 11:33:02 AM 39.5493 -76.9866 47° Northeast 541 623 33,000  Level FlightAware ADS-B
Sun 11:33:33 AM 39.6022 -76.9151 46° Northeast 541 623 33,000  Level FlightAware ADS-B
Sun 11:34:03 AM 39.6550 -76.8438 46° Northeast 541 623 33,000  Level FlightAware ADS-B
Sun 11:34:40 AM 39.7180 -76.7577 46° Northeast 542 624 33,000  Level FlightAware ADS-B
Sun 11:35:11 AM 39.7710 -76.6849 47° Northeast 542 624 33,000  Level FlightAware ADS-B
Sun 11:35:41 AM 39.8224 -76.6138 47° Northeast 541 623 33,000  Level FlightAware ADS-B
Sun 11:36:11 AM 39.8745 -76.5416 47° Northeast 543 625 33,000  Level FlightAware ADS-B
Sun 11:36:43 AM 39.9292 -76.4655 47° Northeast 543 625 33,000  Level FlightAware ADS-B
Sun 11:37:13 AM 39.9806 -76.3938 47° Northeast 543 625 33,000  Level FlightAware ADS-B
Sun 11:37:44 AM 40.0332 -76.3204 47° Northeast 544 626 33,000  Level FlightAware ADS-B
Sun 11:38:14 AM 40.0854 -76.2476 47° Northeast 545 627 33,000  Level FlightAware ADS-B
Sun 11:38:44 AM 40.1372 -76.1751 47° Northeast 545 627 33,000  Level FlightAware ADS-B
Sun 11:39:15 AM 40.1890 -76.1025 47° Northeast 545 627 33,000  Level FlightAware ADS-B
Sun 11:39:45 AM 40.2409 -76.0297 47° Northeast 546 628 33,000  Level FlightAware ADS-B
Sun 11:40:15 AM 40.2931 -75.9560 47° Northeast 545 627 33,000  Level FlightAware ADS-B
Sun 11:40:47 AM 40.3471 -75.8798 47° Northeast 546 628 33,000  Level FlightAware ADS-B
Sun 11:41:17 AM 40.3993 -75.8061 47° Northeast 545 627 33,000  Level FlightAware ADS-B
Sun 11:41:48 AM 40.4511 -75.7327 47° Northeast 544 626 33,000  Level FlightAware ADS-B
Sun 11:42:00 AM 40.4724 -75.7014 48° Northeast 546 628 33,000  Level FlightAware ADS-B
Sun 11:42:18 AM 40.5008 -75.6540 52° Northeast 547 629 33,000  Level FlightAware ADS-B
Sun 11:42:41 AM 40.5325 -75.5919 56° Northeast 549 632 33,000  Level FlightAware ADS-B
Sun 11:43:11 AM 40.5686 -75.5031 62° Northeast 551 634 33,000  Level FlightAware ADS-B
Sun 11:43:41 AM 40.6003 -75.4110 66° East 552 635 33,000  Level FlightAware ADS-B
Sun 11:44:13 AM 40.6339 -75.3134 66° East 552 635 33,000  Level FlightAware ADS-B
Sun 11:44:43 AM 40.6654 -75.2210 66° East 552 635 33,000  Level FlightAware ADS-B
Sun 11:45:14 AM 40.6975 -75.1256 66° East 552 635 33,000  Level FlightAware ADS-B
Sun 11:45:46 AM 40.7296 -75.0301 66° East 553 636 33,000  Level FlightAware ADS-B
Sun 11:46:16 AM 40.7606 -74.9368 66° East 553 636 33,000  Level FlightAware ADS-B
Sun 11:46:31 AM 40.7764 -74.8901 66° East 552 635 33,000  Level FlightAware ADS-B
Sun 11:46:53 AM 40.8027 -74.8271 61° Northeast 552 635 33,000  Level FlightAware ADS-B
Sun 11:47:09 AM 40.8264 -74.7827 55° Northeast 550 633 33,000  Level FlightAware ADS-B
Sun 11:47:40 AM 40.8781 -74.7050 49° Northeast 548 631 33,000  Level FlightAware ADS-B
Sun 11:48:11 AM 40.9317 -74.6292 47° Northeast 548 631 33,000  Level FlightAware ADS-B
Sun 11:48:42 AM 40.9860 -74.5527 47° Northeast 549 632 33,000  Level FlightAware ADS-B
Sun 11:49:15 AM 41.0436 -74.4709 47° Northeast 550 633 33,000  Level FlightAware ADS-B
Sun 11:49:46 AM 41.0972 -74.3944 47° Northeast 551 634 33,000  Level FlightAware ADS-B
Sun 11:50:18 AM 41.1509 -74.3169 47° Northeast 551 634 33,000  Level FlightAware ADS-B
Sun 11:50:49 AM 41.2052 -74.2383 47° Northeast 553 636 33,000  Level FlightAware ADS-B
Sun 11:50:50 AM 41.2071 -74.2356 47° Northeast 552 635 33,000  Level FlightAware ADS-B
Sun 11:51:22 AM 41.2622 -74.1555 48° Northeast 553 636 33,000  Level FlightAware ADS-B
Sun 11:51:29 AM 41.2737 -74.1387 48° Northeast 553 636 33,000  Level FlightAware ADS-B
Sun 11:51:53 AM 41.3145 -74.0789 48° Northeast 553 636 33,000  Level FlightAware ADS-B
Sun 11:52:02 AM 41.3300 -74.0563 48° Northeast 554 638 33,000  Level FlightAware ADS-B
Sun 11:52:25 AM 41.3706 -73.9969 48° Northeast 554 638 33,000  Level FlightAware ADS-B
Sun 11:52:52 AM 41.4164 -73.9299 48° Northeast 554 638 33,000  Level FlightAware ADS-B
Sun 11:52:58 AM 41.4272 -73.9140 48° Northeast 554 638 33,000  Level FlightAware ADS-B
Sun 11:53:29 AM 41.4809 -73.8351 48° Northeast 555 639 33,000  Level FlightAware ADS-B
Sun 11:54:02 AM 41.5365 -73.7530 48° Northeast 554 638 33,000  Level FlightAware ADS-B
Sun 11:54:33 AM 41.5896 -73.6746 48° Northeast 554 638 33,000  Level FlightAware ADS-B
Sun 11:55:12 AM 41.6560 -73.5770 48° Northeast 555 639 33,000  Level FlightAware ADS-B
Sun 11:55:24 AM 41.6782 -73.5434 48° Northeast 555 639 33,000  Level FlightAware ADS-B
Sun 11:56:01 AM 41.7418 -73.4486 48° Northeast 556 640 33,000  Level FlightAware ADS-B
Sun 11:56:40 AM 41.8088 -73.3485 48° Northeast 556 640 33,000  Level FlightAware ADS-B
Sun 11:57:22 AM 41.8797 -73.2425 48° Northeast 556 640 33,000  Level FlightAware ADS-B
Sun 11:58:04 AM 41.9510 -73.1355 48° Northeast 555 639 33,000  Level FlightAware ADS-B
Sun 11:58:47 AM 42.0180 -73.0340 48° Northeast 555 639 33,000  Level FlightAware ADS-B
Sun 11:59:22 AM 42.0840 -72.9350 48° Northeast 555 639 33,000  Level FlightAware ADS-B
Sun 12:00:07 PM 42.1570 -72.8240 48° Northeast 556 640 33,000  Level FlightAware ADS-B
Sun 12:00:52 PM 42.2360 -72.7030 49° Northeast 556 640 33,000  Level FlightAware ADS-B
Sun 12:01:32 PM 42.3030 -72.6000 49° Northeast 555 639 33,000  Level FlightAware ADS-B
Sun 12:02:12 PM 42.3720 -72.4940 49° Northeast 554 638 33,000  Level FlightAware ADS-B
Sun 12:02:57 PM 42.4450 -72.3820 49° Northeast 554 638 33,000  Level FlightAware ADS-B
Sun 12:03:37 PM 42.5130 -72.2760 49° Northeast 555 639 33,000  Level FlightAware ADS-B
Sun 12:04:22 PM 42.5910 -72.1560 49° Northeast 557 641 33,000  Level FlightAware ADS-B
Sun 12:05:02 PM 42.6590 -72.0490 49° Northeast 557 641 33,000  Level FlightAware ADS-B
Sun 12:05:47 PM 42.7340 -71.9320 49° Northeast 557 641 33,000  Level FlightAware ADS-B
Sun 12:06:27 PM 42.8000 -71.8280 49° Northeast 557 641 33,000  Level FlightAware ADS-B
Sun 12:07:07 PM 42.8690 -71.7200 49° Northeast 558 642 33,000  Level FlightAware ADS-B
Sun 12:07:52 PM 42.9450 -71.5990 49° Northeast 558 642 33,000  Level FlightAware ADS-B
Sun 12:08:32 PM 43.0120 -71.4920 49° Northeast 561 646 33,000  Level FlightAware ADS-B
Sun 12:09:12 PM 43.0800 -71.3840 49° Northeast 564 649 33,000  Level FlightAware ADS-B
Sun 12:09:57 PM 43.1550 -71.2640 49° Northeast 566 651 33,000  Level FlightAware ADS-B
Sun 12:10:37 PM 43.2230 -71.1560 49° Northeast 567 652 33,000  Level FlightAware ADS-B
Sun 12:11:22 PM 43.3010 -71.0280 50° Northeast 569 655 33,000  Level FlightAware ADS-B
Sun 12:12:02 PM 43.3700 -70.9170 49° Northeast 569 655 33,000  Level FlightAware ADS-B
Sun 12:12:47 PM 43.4440 -70.7960 50° Northeast 567 652 33,000  Level FlightAware ADS-B
Sun 12:13:22 PM 43.5030 -70.7000 50° Northeast 567 652 33,000  Level FlightAware ADS-B
Sun 12:14:07 PM 43.5800 -70.5740 50° Northeast 567 652 33,000  Level FlightAware ADS-B
Sun 12:14:52 PM 43.6540 -70.4510 50° Northeast 567 652 33,000  Level FlightAware ADS-B
Sun 12:15:32 PM 43.7210 -70.3400 50° Northeast 567 652 33,000  Level FlightAware ADS-B
Sun 12:16:17 PM 43.7970 -70.2140 50° Northeast 567 652 33,000  Level FlightAware ADS-B
Sun 12:16:57 PM 43.8660 -70.1000 50° Northeast 568 654 33,000  Level FlightAware ADS-B
Sun 12:17:37 PM 43.9320 -69.9900 50° Northeast 569 655 33,000  Level FlightAware ADS-B
Sun 12:18:22 PM 44.0050 -69.8670 50° Northeast 570 656 33,000  Level FlightAware ADS-B
Sun 12:19:02 PM 44.0730 -69.7510 51° Northeast 571 657 33,000  Level FlightAware ADS-B
Sun 12:19:47 PM 44.1500 -69.6200 51° Northeast 571 657 33,000  Level FlightAware ADS-B
Sun 12:20:27 PM 44.2160 -69.5080 51° Northeast 571 657 33,000  Level FlightAware ADS-B
Sun 12:21:07 PM 44.2830 -69.3940 51° Northeast 572 658 33,000  Level FlightAware ADS-B
Sun 12:21:52 PM 44.3560 -69.2680 51° Northeast 571 657 33,000  Level FlightAware ADS-B
Sun 12:22:27 PM 44.4090 -69.1780 50° Northeast 570 656 33,000  Level FlightAware ADS-B
Sun 12:23:17 PM 44.4970 -69.0250 51° Northeast 569 655 33,000  Level FlightAware ADS-B
Sun 12:23:57 PM 44.5610 -68.9140 51° Northeast 569 655 33,000  Level FlightAware ADS-B
Sun 12:24:37 PM 44.6310 -68.7930 51° Northeast 570 656 33,000  Level FlightAware ADS-B
Sun 12:25:22 PM 44.7030 -68.6650 52° Northeast 572 658 33,000  Level FlightAware ADS-B
Sun 12:26:02 PM 44.7680 -68.5500 51° Northeast 572 658 33,000  Level FlightAware ADS-B
Sun 12:26:42 PM 44.8370 -68.4280 51° Northeast 572 658 33,000  Level FlightAware ADS-B
Sun 12:27:27 PM 44.9110 -68.2970 51° Northeast 572 658 33,000  Level FlightAware ADS-B
Sun 12:28:07 PM 44.9760 -68.1820 51° Northeast 572 658 33,000  Level FlightAware ADS-B
Sun 12:28:52 PM 45.0470 -68.0540 52° Northeast 573 659 33,000  Level FlightAware ADS-B
Sun 12:29:32 PM 45.1140 -67.9350 51° Northeast 572 658 33,000  Level FlightAware ADS-B
Sun 12:30:12 PM 45.1810 -67.8120 52° Northeast 571 657 33,000  Level FlightAware ADS-B
Sun 12:30:57 PM 45.2510 -67.6860 52° Northeast 570 656 33,000  Level FlightAware ADS-B
Sun 12:31:32 PM 45.3030 -67.5910 52° Northeast 564 649 33,000  Level FlightAware ADS-B
Sun 12:32:22 PM 45.3840 -67.4430 52° Northeast 565 650 33,000  Level FlightAware ADS-B
Sun 12:33:17 PM 45.4720 -67.2800 52° Northeast 567 652 33,000  Level FlightAware ADS-B
Sun 12:33:57 PM 45.5390 -67.1570 52° Northeast 566 651 33,000  Level FlightAware ADS-B
Sun 12:34:42 PM 45.6120 -67.0210 52° Northeast 567 652 33,000  Level FlightAware ADS-B
Sun 12:35:22 PM 45.6750 -66.9040 52° Northeast 568 654 33,000  Level FlightAware ADS-B
Sun 12:36:02 PM 45.7380 -66.7870 52° Northeast 567 652 33,000  Level FlightAware ADS-B
Sun 12:36:47 PM 45.8120 -66.6460 53° Northeast 568 654 33,000  Level FlightAware ADS-B
Sun 12:37:27 PM 45.8770 -66.5230 53° Northeast 567 652 33,000  Level FlightAware ADS-B
Sun 12:38:12 PM 45.9480 -66.3880 53° Northeast 568 654 33,000  Level FlightAware ADS-B
Sun 12:38:47 PM 46.0030 -66.2840 53° Northeast 569 655 33,000  Level FlightAware ADS-B
Sun 12:39:37 PM 46.0820 -66.1320 53° Northeast 571 657 33,000  Level FlightAware ADS-B
Sun 12:40:12 PM 46.1340 -66.0320 53° Northeast 572 658 33,000  Level FlightAware ADS-B
Sun 12:40:57 PM 46.2140 -65.8790 53° Northeast 580 667 33,000  Level FlightAware ADS-B
Sun 12:41:37 PM 46.2730 -65.7650 53° Northeast 580 667 33,000  Level FlightAware ADS-B
Sun 12:42:17 PM 46.3280 -65.6590 53° Northeast 580 667 33,000  Level FlightAware ADS-B
Sun 12:43:07 PM 46.3960 -65.5270 53° Northeast 580 667 33,000  Level FlightAware ADS-B
Sun 12:43:47 PM 46.4510 -65.4210 53° Northeast 580 667 33,000  Level FlightAware ADS-B
Sun 12:44:27 PM 46.5060 -65.3160 53° Northeast 580 667 33,000  Level FlightAware ADS-B
Sun 12:45:07 PM 46.5610 -65.2100 53° Northeast 580 667 33,000  Level FlightAware ADS-B
Sun 12:45:47 PM 46.6160 -65.1040 53° Northeast 580 667 33,000  Level FlightAware ADS-B
Sun 12:46:37 PM 46.6840 -64.9710 53° Northeast 580 667 33,000  Level FlightAware ADS-B
Sun 12:47:17 PM 46.7390 -64.8650 53° Northeast 580 667 33,000  Level FlightAware ADS-B
Sun 12:47:57 PM 46.7940 -64.7580 53° Northeast 580 667 33,000  Level FlightAware ADS-B
Sun 12:48:37 PM 46.8490 -64.6520 53° Northeast 580 667 33,000  Level FlightAware ADS-B
Sun 12:49:17 PM 46.9040 -64.5450 53° Northeast 580 667 33,000  Level FlightAware ADS-B
Sun 12:49:57 PM 46.9590 -64.4380 53° Northeast 580 667 33,000  Level FlightAware ADS-B
Sun 12:50:47 PM 47.0270 -64.3050 53° Northeast 580 667 33,000  Level FlightAware ADS-B
Sun 12:51:25 PM 47.2000 -63.8667 53° Northeast 590 679 33,000  Level Gander Center
Sun 12:51:40 PM 47.2167 -63.8167 64° Northeast 590 679 33,000  Level Gander Center
Sun 12:52:40 PM 47.3167 -63.6167 54° Northeast 600 690 33,000  Level Gander Center
Sun 12:53:40 PM 47.4167 -63.4000 56° Northeast 600 690 33,000  Level Gander Center
Sun 12:54:40 PM 47.5167 -63.2167 51° Northeast 600 690 33,000  Level Gander Center
Sun 12:55:40 PM 47.6000 -63.0167 58° Northeast 600 690 33,000  Level Gander Center
Sun 12:56:40 PM 47.7000 -62.8000 56° Northeast 600 690 33,000  Level Gander Center
Sun 12:57:40 PM 47.7833 -62.6000 58° Northeast 600 690 33,000  Level Gander Center
Sun 12:58:40 PM 47.8833 -62.3833 55° Northeast 610 702 33,000  Level Gander Center
Sun 12:59:54 PM 48.0167 -62.1167 53° Northeast 600 690 33,000  Level Moncton Center
Sun 01:00:40 PM 48.0833 -61.9500 59° Northeast 610 702 33,000  Level Gander Center
Sun 01:01:40 PM 48.1667 -61.7500 58° Northeast 610 702 33,000  Level Gander Center
Sun 01:02:40 PM 48.2667 -61.5333 55° Northeast 610 702 33,000  Level Gander Center
Sun 01:03:40 PM 48.3667 -61.3333 53° Northeast 610 702 33,000  Level Gander Center
Sun 01:04:54 PM 48.4667 -61.0667 60° Northeast 610 702 33,000  Level Moncton Center
Sun 01:05:54 PM 48.5667 -60.8333 57° Northeast 610 702 33,000  Level Moncton Center
Sun 01:06:54 PM 48.6667 -60.6167 55° Northeast 610 702 33,000  Level Moncton Center
Sun 01:07:54 PM 48.7500 -60.4167 58° Northeast 610 702 33,000  Level Moncton Center
Sun 01:08:40 PM 48.8167 -60.2333 61° Northeast 620 713 33,000  Level Gander Center
Sun 01:09:40 PM 48.9167 -60.0167 55° Northeast 620 713 33,000  Level Gander Center
Sun 01:10:40 PM 49.0000 -59.8000 60° Northeast 620 713 33,000  Level Gander Center
Sun 01:11:40 PM 49.0833 -59.5667 61° Northeast 620 713 33,000  Level Gander Center
Sun 01:12:40 PM 49.1833 -59.3333 57° Northeast 620 713 33,000  Level Gander Center
Sun 01:13:40 PM 49.2833 -59.1333 52° Northeast 610 702 33,000  Level Gander Center
Sun 01:14:40 PM 49.3667 -58.9167 59° Northeast 620 713 33,000  Level Gander Center
Sun 01:15:40 PM 49.4500 -58.6833 61° Northeast 610 702 33,000  Level Gander Center
Sun 01:16:40 PM 49.5333 -58.4500 61° Northeast 610 702 33,000  Level Gander Center
Sun 01:17:40 PM 49.6333 -58.2167 56° Northeast 620 713 33,000  Level Gander Center
Sun 01:18:40 PM 49.7000 -57.9667 68° East 620 713 33,000  Level Gander Center
Sun 01:19:40 PM 49.7833 -57.7667 57° Northeast 620 713 33,000  Level Gander Center
Sun 01:20:40 PM 49.8500 -57.5167 67° East 610 702 33,000  Level Gander Center
Sun 01:21:40 PM 49.9333 -57.2833 61° Northeast 610 702 33,000  Level Gander Center
Sun 01:22:40 PM 50.0000 -57.0333 67° East 620 713 33,000  Level Gander Center
Sun 01:23:40 PM 50.0833 -56.8000 61° Northeast 620 713 33,000  Level Gander Center
Sun 01:24:54 PM 50.1833 -56.5000 62° Northeast 620 713 33,000  Level Moncton Center
Sun 01:25:40 PM 50.2333 -56.3167 67° East 620 713 33,000  Level Gander Center
Sun 01:26:40 PM 50.3167 -56.0667 62° Northeast 620 713 33,000  Level Gander Center
Sun 01:27:40 PM 50.4000 -55.8167 62° Northeast 620 713 33,000  Level Gander Center
Sun 01:28:40 PM 50.4667 -55.5833 66° East 620 713 33,000  Level Gander Center
Sun 01:29:40 PM 50.5333 -55.3333 67° East 630 725 33,000  Level Gander Center
Sun 01:30:40 PM 50.6000 -55.0833 67° East 630 725 33,000  Level Gander Center
Sun 01:36:57 PM 51.0780 -53.5590 67° East 628 723 33,000  Level FlightAware ADS-B
Sun 01:37:42 PM 51.1300 -53.3720 66° East 624 718 33,000  Level FlightAware ADS-B
Sun 01:38:22 PM 51.1700 -53.2300 66° East 625 719 33,000  Level FlightAware ADS-B
Sun 01:39:02 PM 51.2100 -53.0870 66° East 625 719 33,000  Level FlightAware ADS-B
Sun 01:39:42 PM 51.2500 -52.9430 66° East 625 719 33,000  Level FlightAware ADS-B
Sun 01:40:22 PM 51.2900 -52.8000 66° East 625 719 33,000  Level FlightAware ADS-B
Sun 01:41:12 PM 51.3400 -52.6200 66° East 625 719 33,000  Level FlightAware ADS-B
Sun 01:41:52 PM 51.3800 -52.4760 66° East 625 719 33,000  Level FlightAware ADS-B
Sun 01:42:32 PM 51.4200 -52.3320 66° East 625 719 33,000  Level FlightAware ADS-B
Sun 01:43:12 PM 51.4600 -52.1880 66° East 625 719 33,000  Level FlightAware ADS-B
Sun 01:43:52 PM 51.5000 -52.0440 66° East 625 719 33,000  Level FlightAware ADS-B
Sun 01:44:42 PM 51.5490 -51.8630 66° East 625 719 33,000  Level FlightAware ADS-B
Sun 01:45:22 PM 51.5890 -51.7190 66° East 625 719 33,000  Level FlightAware ADS-B
Sun 01:46:02 PM 51.6290 -51.5740 66° East 625 719 33,000  Level FlightAware ADS-B
Sun 01:46:42 PM 51.6690 -51.4300 66° East 625 719 33,000  Level FlightAware ADS-B
Sun 01:47:22 PM 51.7090 -51.2850 66° East 625 719 33,000  Level FlightAware ADS-B
Sun 01:47:40 PM 51.7833 -50.8000 66° East 620 713 33,000  Level Gander Center
Sun 01:48:40 PM 51.8500 -50.5667 65° Northeast 610 702 33,000  Level Gander Center
Sun 01:50:00 PM 51.9315 -50.2604 67° East  Level FlightAware Approximate
Sun 01:57:00 PM 52.4499 -48.7154 60° Northeast  Level FlightAware Approximate
Sun 01:58:00 PM 52.5251 -48.4940 61° Northeast  Level FlightAware Approximate
Sun 01:59:00 PM 52.5999 -48.2718 61° Northeast  Level FlightAware Approximate
Sun 02:00:00 PM 52.6743 -48.0489 61° Northeast  Level FlightAware Approximate
Sun 02:01:00 PM 52.7483 -47.8251 61° Northeast  Level FlightAware Approximate
Sun 02:02:00 PM 52.8220 -47.6008 61° Northeast  Level FlightAware Approximate
Sun 02:03:00 PM 52.8970 -47.3772 61° Northeast  Level FlightAware Approximate
Sun 02:04:00 PM 52.9715 -47.1529 61° Northeast  Level FlightAware Approximate
Sun 02:05:00 PM 53.0456 -46.9277 61° Northeast  Level FlightAware Approximate
Sun 02:06:00 PM 53.1193 -46.7019 61° Northeast  Level FlightAware Approximate
Sun 02:07:00 PM 53.1925 -46.4752 62° Northeast  Level FlightAware Approximate
Sun 02:08:00 PM 53.2648 -46.2472 62° Northeast  Level FlightAware Approximate
Sun 02:09:00 PM 53.3363 -46.0183 62° Northeast  Level FlightAware Approximate
Sun 02:10:00 PM 53.4074 -45.7885 62° Northeast  Level FlightAware Approximate
Sun 02:11:00 PM 53.4781 -45.5580 63° Northeast  Level FlightAware Approximate
Sun 02:12:00 PM 53.5483 -45.3268 63° Northeast  Level FlightAware Approximate
Sun 02:13:00 PM 53.6180 -45.0948 63° Northeast  Level FlightAware Approximate
Sun 02:14:00 PM 53.6874 -44.8620 63° Northeast  Level FlightAware Approximate
Sun 02:15:00 PM 53.7562 -44.6284 63° Northeast  Level FlightAware Approximate
Sun 02:16:00 PM 53.8246 -44.3941 64° Northeast  Level FlightAware Approximate
Sun 02:17:00 PM 53.8926 -44.1590 64° Northeast  Level FlightAware Approximate
Sun 02:18:00 PM 53.9601 -43.9232 64° Northeast  Level FlightAware Approximate
Sun 02:19:00 PM 54.0264 -43.6860 65° Northeast  Level FlightAware Approximate
Sun 02:20:00 PM 54.0922 -43.4480 65° Northeast  Level FlightAware Approximate
Sun 02:21:00 PM 54.1575 -43.2093 65° Northeast  Level FlightAware Approximate
Sun 02:22:00 PM 54.2223 -42.9697 65° Northeast  Level FlightAware Approximate
Sun 02:23:00 PM 54.2867 -42.7295 65° Northeast  Level FlightAware Approximate
Sun 02:24:00 PM 54.3517 -42.4894 65° Northeast  Level FlightAware Approximate
Sun 02:25:00 PM 54.4174 -42.2495 65° Northeast  Level FlightAware Approximate
Sun 02:26:00 PM 54.4826 -42.0087 65° Northeast  Level FlightAware Approximate
Sun 02:27:00 PM 54.5472 -41.7672 65° Northeast  Level FlightAware Approximate
Sun 02:28:00 PM 54.6114 -41.5249 65° Northeast  Level FlightAware Approximate
Sun 02:29:00 PM 54.6752 -41.2819 66° East  Level FlightAware Approximate
Sun 02:30:00 PM 54.7384 -41.0381 66° East  Level FlightAware Approximate
Sun 02:31:00 PM 54.8011 -40.7935 66° East  Level FlightAware Approximate
Sun 02:32:00 PM 54.8634 -40.5482 66° East  Level FlightAware Approximate
Sun 02:32:00 PM 55.0000 -40.0000 76° East 591 680 33,000  Level ETMS Enhanced Traffic Management System
Sun 02:33:00 PM 54.9251 -40.3021 66° East  Level FlightAware Approximate
Sun 02:34:00 PM 54.9864 -40.0552 67° East  Level FlightAware Approximate
Sun 02:35:00 PM 55.0288 -39.7970 76° East  Level FlightAware Approximate
Sun 02:36:00 PM 55.0655 -39.5352 76° East  Level FlightAware Approximate
Sun 02:37:00 PM 55.1015 -39.2729 76° East  Level FlightAware Approximate
Sun 02:38:00 PM 55.2998 -37.7621 78° East 591 680 33,000  Level FlightAware Transoceanic
Sun 02:39:00 PM 55.3344 -37.4800 78° East 591 680 33,000  Level FlightAware Transoceanic
Sun 02:40:00 PM 55.3683 -37.1975 78° East 591 680 33,000  Level FlightAware Transoceanic
Sun 02:41:00 PM 55.4016 -36.9144 78° East 591 680 33,000  Level FlightAware Transoceanic
Sun 02:42:00 PM 55.4342 -36.6309 79° East 591 680 33,000  Level FlightAware Transoceanic
Sun 02:43:00 PM 55.4662 -36.3470 79° East 591 680 33,000  Level FlightAware Transoceanic
Sun 02:44:00 PM 55.4975 -36.0626 79° East 591 680 33,000  Level FlightAware Transoceanic
Sun 02:45:00 PM 55.5282 -35.7777 79° East 591 680 33,000  Level FlightAware Transoceanic
Sun 02:46:00 PM 55.5582 -35.4924 80° East 591 680 33,000  Level FlightAware Transoceanic
Sun 02:47:00 PM 55.5875 -35.2067 80° East 591 680 33,000  Level FlightAware Transoceanic
Sun 02:48:00 PM 55.6161 -34.9205 80° East 591 680 33,000  Level FlightAware Transoceanic
Sun 02:49:00 PM 55.6441 -34.6339 80° East 591 680 33,000  Level FlightAware Transoceanic
Sun 02:50:00 PM 55.6714 -34.3470 81° East 591 680 33,000  Level FlightAware Transoceanic
Sun 02:51:00 PM 55.6981 -34.0596 81° East 591 680 33,000  Level FlightAware Transoceanic
Sun 02:52:00 PM 55.7241 -33.7719 81° East 591 680 33,000  Level FlightAware Transoceanic
Sun 02:53:00 PM 55.7494 -33.4837 81° East 591 680 33,000  Level FlightAware Transoceanic
Sun 02:54:00 PM 55.7740 -33.1952 81° East 591 680 33,000  Level FlightAware Transoceanic
Sun 02:55:00 PM 55.7980 -32.9063 82° East 591 680 33,000  Level FlightAware Transoceanic
Sun 02:56:00 PM 55.8212 -32.6171 82° East 591 680 33,000  Level FlightAware Transoceanic
Sun 02:57:00 PM 55.8438 -32.3276 82° East 591 680 33,000  Level FlightAware Transoceanic
Sun 02:58:00 PM 55.8657 -32.0377 82° East 591 680 33,000  Level FlightAware Transoceanic
Sun 02:59:00 PM 55.8870 -31.7475 83° East 591 680 33,000  Level FlightAware Transoceanic
Sun 03:00:00 PM 55.9075 -31.4570 83° East 591 680 33,000  Level FlightAware Transoceanic
Sun 03:01:00 PM 55.9274 -31.1661 83° East 591 680 33,000  Level FlightAware Transoceanic
Sun 03:02:00 PM 55.9466 -30.8750 83° East 591 680 33,000  Level FlightAware Transoceanic
Sun 03:03:00 PM 55.9651 -30.5836 84° East 591 680 33,000  Level FlightAware Transoceanic
Sun 03:04:00 PM 55.9829 -30.2919 84° East 591 680 33,000  Level FlightAware Transoceanic
Sun 03:05:00 PM 55.9989 -30.0195 84° East  Level FlightAware Approximate
Sun 03:06:00 PM 56.0142 -29.7469 84° East  Level FlightAware Approximate
Sun 03:06:25 PM 56.0000 -30.0000 86° East 574 661 33,000  Level ETMS Enhanced Traffic Management System
Sun 03:07:00 PM 56.0093 -29.7659 86° East  Level FlightAware Approximate
Sun 03:08:00 PM 56.0195 -29.4924 86° East  Level FlightAware Approximate
Sun 03:09:00 PM 56.0292 -29.2188 86° East  Level FlightAware Approximate
Sun 03:10:00 PM 56.0382 -28.9451 86° East  Level FlightAware Approximate
Sun 03:11:00 PM 56.0467 -28.6713 87° East  Level FlightAware Approximate
Sun 03:12:00 PM 56.0647 -28.0034 88° East 574 661 33,000  Level FlightAware Transoceanic
Sun 03:13:00 PM 56.0713 -27.7176 88° East 574 661 33,000  Level FlightAware Transoceanic
Sun 03:14:00 PM 56.0773 -27.4318 88° East 574 661 33,000  Level FlightAware Transoceanic
Sun 03:15:00 PM 56.0826 -27.1459 88° East 574 661 33,000  Level FlightAware Transoceanic
Sun 03:16:00 PM 56.0872 -26.8599 88° East 574 661 33,000  Level FlightAware Transoceanic
Sun 03:17:00 PM 56.0912 -26.5739 89° East 574 661 33,000  Level FlightAware Transoceanic
Sun 03:18:00 PM 56.0945 -26.2878 89° East 574 661 33,000  Level FlightAware Transoceanic
Sun 03:19:00 PM 56.0971 -26.0017 89° East 574 661 33,000  Level FlightAware Transoceanic
Sun 03:20:00 PM 56.0991 -25.7155 89° East 574 661 33,000  Level FlightAware Transoceanic
Sun 03:21:00 PM 56.1004 -25.4293 90° East 574 661 33,000  Level FlightAware Transoceanic
Sun 03:22:00 PM 56.1011 -25.1431 90° East 574 661 33,000  Level FlightAware Transoceanic
Sun 03:23:00 PM 56.1011 -24.8569 90° East 574 661 33,000  Level FlightAware Transoceanic
Sun 03:24:00 PM 56.1004 -24.5707 90° East 574 661 33,000  Level FlightAware Transoceanic
Sun 03:25:00 PM 56.0991 -24.2845 91° East 574 661 33,000  Level FlightAware Transoceanic
Sun 03:26:00 PM 56.0971 -23.9983 91° East 574 661 33,000  Level FlightAware Transoceanic
Sun 03:27:00 PM 56.0945 -23.7122 91° East 574 661 33,000  Level FlightAware Transoceanic
Sun 03:28:00 PM 56.0912 -23.4261 91° East 574 661 33,000  Level FlightAware Transoceanic
Sun 03:29:00 PM 56.0872 -23.1401 92° East 574 661 33,000  Level FlightAware Transoceanic
Sun 03:30:00 PM 56.0826 -22.8541 92° East 574 661 33,000  Level FlightAware Transoceanic
Sun 03:31:00 PM 56.0773 -22.5682 92° East 574 661 33,000  Level FlightAware Transoceanic
Sun 03:32:00 PM 56.0713 -22.2824 92° East 574 661 33,000  Level FlightAware Transoceanic
Sun 03:33:00 PM 56.0647 -21.9966 92° East 574 661 33,000  Level FlightAware Transoceanic
Sun 03:34:00 PM 56.0575 -21.7110 93° East 574 661 33,000  Level FlightAware Transoceanic
Sun 03:35:00 PM 56.0495 -21.4255 93° East 574 661 33,000  Level FlightAware Transoceanic
Sun 03:36:00 PM 56.0409 -21.1401 93° East 574 661 33,000  Level FlightAware Transoceanic
Sun 03:37:00 PM 56.0317 -20.8549 93° East 574 661 33,000  Level FlightAware Transoceanic
Sun 03:38:00 PM 56.0218 -20.5698 94° East 574 661 33,000  Level FlightAware Transoceanic
Sun 03:39:00 PM 56.0112 -20.2848 94° East 574 661 33,000 75 Level FlightAware Transoceanic
Sun 03:40:00 PM 56.0005 -20.0115 94° East  Level FlightAware Approximate
Sun 03:41:00 PM 55.9892 -19.7383 94° East  Level FlightAware Approximate
Sun 03:42:00 PM 55.9563 -19.7617 108° East  Level FlightAware Approximate
Sun 03:43:00 PM 55.9081 -19.5021 108° East  Level FlightAware Approximate
Sun 03:44:00 PM 55.8593 -19.2432 108° East  Level FlightAware Approximate
Sun 03:45:00 PM 55.8100 -18.9849 109° East  Level FlightAware Approximate
Sun 03:46:00 PM 55.7602 -18.7273 109° East  Level FlightAware Approximate
Sun 03:47:00 PM 55.7098 -18.4703 109° East  Level FlightAware Approximate
Sun 03:48:00 PM 55.6589 -18.2140 109° East  Level FlightAware Approximate
Sun 03:49:00 PM 55.6074 -17.9584 110° East  Level FlightAware Approximate
Sun 03:50:00 PM 55.5554 -17.7034 110° East  Level FlightAware Approximate
Sun 03:51:00 PM 55.5029 -17.4492 110° East  Level FlightAware Approximate
Sun 03:52:00 PM 55.4498 -17.1956 110° East  Level FlightAware Approximate
Sun 03:53:00 PM 55.3963 -16.9427 110° East  Level FlightAware Approximate
Sun 03:54:00 PM 55.3422 -16.6905 111° Southeast  Level FlightAware Approximate
Sun 03:55:00 PM 55.2876 -16.4389 111° Southeast  Level FlightAware Approximate
Sun 03:56:00 PM 55.2325 -16.1881 111° Southeast  Level FlightAware Approximate
Sun 03:57:00 PM 55.1769 -15.9380 111° Southeast  Level FlightAware Approximate
Sun 03:58:00 PM 55.1207 -15.6885 111° Southeast  Level FlightAware Approximate
Sun 03:59:00 PM 55.0641 -15.4398 112° Southeast  Level FlightAware Approximate
Sun 04:00:00 PM 55.0070 -15.1918 112° Southeast  Level FlightAware Approximate
Sun 04:01:00 PM 54.9493 -14.9444 112° Southeast  Level FlightAware Approximate
Sun 04:02:00 PM 54.8912 -14.6978 112° Southeast  Level FlightAware Approximate
Sun 04:03:00 PM 54.8325 -14.4519 112° Southeast  Level FlightAware Approximate
Sun 04:04:00 PM 54.7734 -14.2067 113° Southeast  Level FlightAware Approximate
Sun 04:04:47 PM 54.7330 -13.6520 113° Southeast 566 651 35,000  Level FlightAware ADS-B
Sun 04:05:00 PM 54.7137 -13.9623 113° Southeast  Level FlightAware Approximate
Sun 04:05:32 PM 54.6840 -13.4690 115° Southeast 565 650 35,000  Level FlightAware ADS-B
Sun 04:06:42 PM 54.6100 -13.1920 115° Southeast 567 652 35,000  Level FlightAware ADS-B
Sun 04:07:17 PM 54.5720 -13.0500 115° Southeast 566 651 35,000  Level FlightAware ADS-B
Sun 04:08:07 PM 54.5150 -12.8430 115° Southeast 566 651 35,000  Level FlightAware ADS-B
Sun 04:08:37 PM 54.4830 -12.7230 115° Southeast 565 650 35,000  Level FlightAware ADS-B
Sun 04:10:02 PM 54.3870 -12.3790 115° Southeast 565 650 35,000  Level FlightAware ADS-B
Sun 04:10:47 PM 54.3390 -12.2050 115° Southeast 565 650 35,000  Level FlightAware ADS-B
Sun 04:11:32 PM 54.2840 -12.0110 116° Southeast 563 648 35,000  Level FlightAware ADS-B
Sun 04:12:17 PM 54.2330 -11.8320 116° Southeast 562 647 35,000  Level FlightAware ADS-B
Sun 04:12:57 PM 54.1880 -11.6740 116° Southeast 562 647 35,000  Level FlightAware ADS-B
Sun 04:13:42 PM 54.1360 -11.4920 116° Southeast 561 646 35,000  Level FlightAware ADS-B
Sun 04:14:22 PM 54.0890 -11.3330 117° Southeast 562 647 35,000  Level FlightAware ADS-B
Sun 04:15:07 PM 54.0370 -11.1550 116° Southeast 563 648 35,000  Level FlightAware ADS-B
Sun 04:15:47 PM 53.9900 -10.9950 116° Southeast 563 648 35,000  Level FlightAware ADS-B
Sun 04:16:32 PM 53.9360 -10.8120 117° Southeast 568 654 35,000  Level FlightAware ADS-B
Sun 04:17:12 PM 53.8880 -10.6520 117° Southeast 567 652 35,000  Level FlightAware ADS-B
Sun 04:17:52 PM 53.8400 -10.4930 117° Southeast 567 652 35,000  Level FlightAware ADS-B
Sun 04:18:22 PM 53.8050 -10.3760 117° Southeast 567 652 35,000  Level FlightAware ADS-B
Sun 04:19:02 PM 53.7560 -10.2160 117° Southeast 567 652 35,000  Level FlightAware ADS-B
Sun 04:19:47 PM 53.7020 -10.0400 117° Southeast 566 651 35,000  Level FlightAware ADS-B
Sun 04:20:27 PM 53.6570 -9.8930 117° Southeast 567 652 35,000  Level FlightAware ADS-B
Sun 04:21:07 PM 53.6070 -9.7340 118° Southeast 564 649 35,000  Level FlightAware ADS-B
Sun 04:21:47 PM 53.5590 -9.5810 118° Southeast 564 649 35,000  Level FlightAware ADS-B
Sun 04:22:32 PM 53.5040 -9.4060 118° Southeast 563 648 35,000  Level FlightAware ADS-B
Sun 04:23:17 PM 53.4490 -9.2310 118° Southeast 562 647 35,000  Level FlightAware ADS-B
Sun 04:23:57 PM 53.4000 -9.0780 118° Southeast 563 648 35,000 -1,745 Level FlightAware ADS-B
Sun 04:24:12 PM 53.3751 -9.0009 118° Southeast 478 550 33,400 -2,909 Descending FlightAware UK
Sun 04:24:30 PM 53.3526 -8.9309 118° Southeast 478 550 33,400 3,840 Level FlightAware UK
Sun 04:24:37 PM 53.3500 -8.9220 118° Southeast 561 646 35,000 250 Climbing FlightAware ADS-B
Sun 04:24:54 PM 53.3229 -8.8388 118° Southeast 476 548 33,500 -2,571 Descending FlightAware UK
Sun 04:25:12 PM 53.3006 -8.7697 118° Southeast 476 548 33,500 3,214 Level FlightAware UK
Sun 04:25:22 PM 53.2930 -8.7450 118° Southeast 562 647 35,000  Climbing FlightAware ADS-B
Sun 04:25:42 PM 53.2634 -8.6548 118° Southeast 476 548 33,500 -2,526 Descending FlightAware UK
Sun 04:26:00 PM 53.2409 -8.5860 119° Southeast 474 545 33,400 2,571 Descending FlightAware UK
Sun 04:26:17 PM 53.2270 -8.5430 119° Southeast 565 650 35,000  Climbing FlightAware ADS-B
Sun 04:26:36 PM 53.1957 -8.4489 119° Southeast 474 545 33,400 -2,595 Descending FlightAware UK
Sun 04:26:54 PM 53.1728 -8.3798 119° Southeast 474 545 33,400 3,692 Level FlightAware UK
Sun 04:27:02 PM 53.1700 -8.3700 119° Southeast 565 650 35,000  Climbing FlightAware ADS-B
Sun 04:27:18 PM 53.1426 -8.2883 119° Southeast 476 548 33,400 -2,647 Descending FlightAware UK
Sun 04:27:36 PM 53.1202 -8.2197 119° Southeast 474 545 33,500 4,000 Climbing FlightAware UK
Sun 04:27:42 PM 53.1190 -8.2150 119° Southeast 566 651 35,000  Climbing FlightAware ADS-B
Sun 04:28:00 PM 53.0897 -8.1284 119° Southeast 474 545 33,500 -2,500 Descending FlightAware UK
Sun 04:28:18 PM 53.0669 -8.0600 119° Southeast 476 548 33,500 4,091 Level FlightAware UK
Sun 04:28:22 PM 53.0680 -8.0640 119° Southeast 565 650 35,000  Climbing FlightAware ADS-B
Sun 04:28:42 PM 53.0366 -7.9689 119° Southeast 476 548 33,500 -2,368 Descending FlightAware UK
Sun 04:29:00 PM 53.0137 -7.9007 119° Southeast 474 545 33,500 3,600 Level FlightAware UK
Sun 04:29:07 PM 53.0120 -7.8940 119° Southeast 565 650 35,000  Climbing FlightAware ADS-B
Sun 04:29:24 PM 52.9832 -7.8098 119° Southeast 474 545 33,500 -2,571 Descending FlightAware UK
Sun 04:29:42 PM 52.9605 -7.7414 119° Southeast 474 545 33,500 3,913 Level FlightAware UK
Sun 04:29:47 PM 52.9600 -7.7420 119° Southeast 565 650 35,000 -250 Climbing FlightAware ADS-B
Sun 04:30:06 PM 52.9298 -7.6509 119° Southeast 474 545 33,400 -2,595 Descending FlightAware UK
Sun 04:30:24 PM 52.9066 -7.5834 120° Southeast 474 545 33,400 4,571 Level FlightAware UK
Sun 04:30:27 PM 52.9090 -7.5900 120° Southeast 564 649 35,000 333 Climbing FlightAware ADS-B
Sun 04:30:42 PM 52.8835 -7.5159 120° Southeast 474 545 33,500 -2,727 Descending FlightAware UK
Sun 04:31:00 PM 52.8605 -7.4484 119° Southeast 474 545 33,500 3,000 Level FlightAware UK
Sun 04:31:12 PM 52.8510 -7.4210 119° Southeast 565 650 35,000  Climbing FlightAware ADS-B
Sun 04:31:30 PM 52.8221 -7.3361 119° Southeast 474 545 33,500  Descending FlightAware UK
Sun 04:31:47 PM 52.8050 -7.2870 119° Southeast 561 646 35,000  Climbing FlightAware ADS-B
Sun 04:31:48 PM 52.7990 -7.2687 119° Southeast 474 545 33,500 -4,737 Descending FlightAware UK
Sun 04:32:06 PM 52.7759 -7.2014 119° Southeast 474 545 33,500  Level FlightAware UK
Sun 04:32:24 PM 52.7523 -7.1336 120° Southeast 474 545 33,500 3,462 Level FlightAware UK
Sun 04:32:32 PM 52.7470 -7.1210 120° Southeast 561 646 35,000  Climbing FlightAware ADS-B
Sun 04:32:48 PM 52.7211 -7.0441 120° Southeast 476 548 33,500 -2,647 Descending FlightAware UK
Sun 04:33:06 PM 52.6978 -6.9770 120° Southeast 476 548 33,500 3,103 Level FlightAware UK
Sun 04:33:17 PM 52.6880 -6.9490 120° Southeast 561 646 35,000  Climbing FlightAware ADS-B
Sun 04:33:42 PM 52.6510 -6.8431 120° Southeast 474 545 33,500  Descending FlightAware UK
Sun 04:33:57 PM 52.6390 -6.8100 120° Southeast 561 646 35,000  Climbing FlightAware ADS-B
Sun 04:34:12 PM 52.6119 -6.7315 120° Southeast 474 545 33,500 -2,909 Descending FlightAware UK
Sun 04:34:30 PM 52.5883 -6.6648 120° Southeast 474 545 33,400 3,000 Descending FlightAware UK
Sun 04:34:42 PM 52.5740 -6.6250 120° Southeast 565 650 35,000 200 Climbing FlightAware ADS-B
Sun 04:35:00 PM 52.5489 -6.5537 120° Southeast 476 548 33,500  Descending FlightAware UK
Sun 04:35:22 PM 52.5210 -6.4760 120° Southeast 565 650 35,000  Climbing FlightAware ADS-B
Sun 04:35:42 PM 52.4935 -6.3985 120° Southeast 476 548 33,500 -2,526 Descending FlightAware UK
Sun 04:36:00 PM 52.4699 -6.3320 120° Southeast 476 548 33,400 3,600 Descending FlightAware UK
Sun 04:36:07 PM 52.4630 -6.3150 120° Southeast 565 650 35,000 250 Climbing FlightAware ADS-B
Sun 04:36:24 PM 52.4382 -6.2436 120° Southeast 476 548 33,500 -2,571 Descending FlightAware UK
Sun 04:36:42 PM 52.4142 -6.1775 121° Southeast 476 548 33,500 3,913 Level FlightAware UK
Sun 04:36:47 PM 52.4100 -6.1650 121° Southeast 565 650 35,000 -250 Climbing FlightAware ADS-B
Sun 04:37:06 PM 52.3824 -6.0894 121° Southeast 476 548 33,400 -2,432 Descending FlightAware UK
Sun 04:37:24 PM 52.3584 -6.0234 121° Southeast 476 548 33,500 3,692 Climbing FlightAware UK
Sun 04:37:32 PM 52.3520 -6.0060 121° Southeast 564 649 35,000 -250 Climbing FlightAware ADS-B
Sun 04:37:48 PM 52.3263 -5.9348 121° Southeast 476 548 33,400 -2,824 Descending FlightAware UK
Sun 04:38:06 PM 52.3024 -5.8689 121° Southeast 480 552 33,400 4,000 Level FlightAware UK
Sun 04:38:12 PM 52.2980 -5.8580 121° Southeast 564 649 35,000 250 Climbing FlightAware ADS-B
Sun 04:38:30 PM 52.2704 -5.7813 121° Southeast 478 550 33,500  Descending FlightAware UK
Sun 04:38:52 PM 52.2440 -5.7100 121° Southeast 562 647 35,000 -143 Climbing FlightAware ADS-B
Sun 04:39:12 PM 52.2142 -5.6290 121° Southeast 476 548 33,400 -2,526 Descending FlightAware UK
Sun 04:39:30 PM 52.1913 -5.5632 120° Southeast 476 548 33,400 3,840 Level FlightAware UK
Sun 04:39:37 PM 52.1870 -5.5420 120° Southeast 542 624 35,000  Climbing FlightAware ADS-B
Sun 04:39:54 PM 52.1750 -5.4706 120° Southeast 480 552 33,400 -2,743 Descending FlightAware UK
Sun 04:40:12 PM 52.1709 -5.4021 96° East 480 552 33,400 4,174 Level FlightAware UK
Sun 04:40:17 PM 52.1700 -5.3920 96° East 510 587 35,000 250 Climbing FlightAware ADS-B
Sun 04:40:36 PM 52.1650 -5.3107 96° East 480 552 33,500 -2,432 Descending FlightAware UK
Sun 04:40:54 PM 52.1598 -5.2420 97° East 478 550 33,500 4,286 Level FlightAware UK
Sun 04:40:57 PM 52.1590 -5.2380 97° East 516 594 35,000  Climbing FlightAware ADS-B
Sun 04:41:12 PM 52.1523 -5.1730 97° East 478 550 33,500 -2,727 Descending FlightAware UK
Sun 04:41:30 PM 52.1442 -5.1041 101° East 478 550 33,500 3,000 Level FlightAware UK
Sun 04:41:42 PM 52.1400 -5.0700 101° East 518 596 35,000  Climbing FlightAware ADS-B
Sun 04:42:00 PM 52.1301 -4.9892 101° East 476 548 33,500 -2,667 Descending FlightAware UK
Sun 04:42:18 PM 52.1223 -4.9198 100° East 474 545 33,400 4,091 Descending FlightAware UK
Sun 04:42:22 PM 52.1220 -4.9160 100° East 515 593 35,000  Climbing FlightAware ADS-B
Sun 04:42:42 PM 52.1134 -4.8292 100° East 474 545 33,400 -2,526 Descending FlightAware UK
Sun 04:43:00 PM 52.1068 -4.7600 99° East 474 545 33,400 3,840 Level FlightAware UK
Sun 04:43:07 PM 52.1050 -4.7410 99° East 514 592 35,000 8,727 Climbing FlightAware ADS-B
Sun 04:43:11 PM 52.1029 -4.7207 100° East 515 593 35,000 -3,913 Level FlightAware ADS-B
Sun 04:43:30 PM 52.0956 -4.6460 100° East 476 548 33,500  Descending FlightAware UK
Sun 04:43:43 PM 52.0907 -4.5992 100° East 516 594 35,000  Climbing FlightAware ADS-B
Sun 04:44:00 PM 52.0839 -4.5317 100° East 482 555 33,500  Descending FlightAware UK
Sun 04:44:13 PM 52.0786 -4.4831 100° East 516 594 35,000  Climbing FlightAware ADS-B
Sun 04:44:30 PM 52.0719 -4.4172 100° East 478 550 33,500  Descending FlightAware UK
Sun 04:44:44 PM 52.0664 -4.3678 100° East 516 594 35,000  Climbing FlightAware ADS-B
Sun 04:45:00 PM 52.0597 -4.3030 100° East 480 552 33,500  Descending FlightAware UK
Sun 04:45:15 PM 52.0537 -4.2487 100° East 515 593 35,000  Climbing FlightAware ADS-B
Sun 04:45:30 PM 52.0475 -4.1890 100° East 480 552 33,500  Descending FlightAware UK
Sun 04:45:45 PM 52.0414 -4.1347 100° East 513 590 35,000 -194 Climbing FlightAware ADS-B
Sun 04:46:01 PM 52.0349 -4.0748 100° East 480 552 33,400  Descending FlightAware UK
Sun 04:46:16 PM 52.0289 -4.0201 100° East 511 588 35,000 200 Climbing FlightAware ADS-B
Sun 04:46:31 PM 52.0225 -3.9619 100° East 488 562 33,500  Descending FlightAware UK
Sun 04:46:49 PM 52.0150 -3.8950 100° East 508 585 35,000 -167 Climbing FlightAware ADS-B
Sun 04:47:07 PM 52.0075 -3.8272 100° East 484 557 33,400  Descending FlightAware UK
Sun 04:47:19 PM 52.0025 -3.7826 100° East 504 580 35,000  Climbing FlightAware ADS-B
Sun 04:47:37 PM 51.9953 -3.7163 100° East 482 555 33,400  Descending FlightAware UK
Sun 04:47:51 PM 51.9892 -3.6630 100° East 500 575 35,000  Climbing FlightAware ADS-B
Sun 04:48:07 PM 51.9829 -3.6062 100° East 478 550 33,400  Descending FlightAware UK
Sun 04:48:23 PM 51.9760 -3.5465 100° East 497 572 35,000  Climbing FlightAware ADS-B
Sun 04:48:43 PM 51.9678 -3.4739 100° East 474 545 33,400  Descending FlightAware UK
Sun 04:48:53 PM 51.9636 -3.4369 100° East 495 570 35,000 200 Climbing FlightAware ADS-B
Sun 04:49:13 PM 51.9554 -3.3648 100° East 472 543 33,500  Descending FlightAware UK
Sun 04:49:27 PM 51.9495 -3.3128 100° East 495 570 35,000  Climbing FlightAware ADS-B
Sun 04:49:43 PM 51.9430 -3.2558 100° East 472 543 33,500  Descending FlightAware UK
Sun 04:49:58 PM 51.9366 -3.2016 100° East 496 571 35,000  Climbing FlightAware ADS-B
Sun 04:50:13 PM 51.9303 -3.1461 100° East 472 543 33,500  Descending FlightAware UK
Sun 04:50:29 PM 51.9235 -3.0897 100° East 495 570 35,000  Climbing FlightAware ADS-B
Sun 04:50:49 PM 51.9148 -3.0154 100° East 474 545 33,500  Descending FlightAware UK
Sun 04:51:01 PM 51.9095 -2.9716 100° East 496 571 35,000  Climbing FlightAware ADS-B
Sun 04:51:19 PM 51.9017 -2.9057 100° East 476 548 33,500  Descending FlightAware UK
Sun 04:51:35 PM 51.8947 -2.8477 100° East 497 572 35,000  Climbing FlightAware ADS-B
Sun 04:51:55 PM 51.8861 -2.7748 100° East 474 545 33,500  Descending FlightAware UK
Sun 04:52:06 PM 51.8814 -2.7371 100° East 497 572 35,000  Climbing FlightAware ADS-B
Sun 04:52:25 PM 51.8728 -2.6648 100° East 476 548 33,500  Descending FlightAware UK
Sun 04:52:36 PM 51.8679 -2.6260 100° East 498 573 35,000  Climbing FlightAware ADS-B
Sun 04:52:55 PM 51.8595 -2.5564 100° East 478 550 33,500  Descending FlightAware UK
Sun 04:53:07 PM 51.8544 -2.5159 100° East 499 574 35,000  Climbing FlightAware ADS-B
Sun 04:53:25 PM 51.8461 -2.4461 100° East 480 552 33,500  Descending FlightAware UK
Sun 04:53:37 PM 51.8409 -2.4060 100° East 501 577 35,000  Climbing FlightAware ADS-B
Sun 04:53:55 PM 51.8324 -2.3366 100° East 482 555 33,500  Descending FlightAware UK
Sun 04:54:08 PM 51.8265 -2.2913 100° East 500 575 35,000  Climbing FlightAware ADS-B
Sun 04:54:32 PM 51.8157 -2.2044 100° East 482 555 33,500  Descending FlightAware UK
Sun 04:54:38 PM 51.8128 -2.1813 100° East 498 573 35,000 -250 Climbing FlightAware ADS-B
Sun 04:54:56 PM 51.8048 -2.1170 100° East 480 552 33,400  Descending FlightAware UK
Sun 04:55:08 PM 51.7990 -2.0723 100° East 498 573 35,000 200 Climbing FlightAware ADS-B
Sun 04:55:26 PM 51.7909 -2.0074 100° East 478 550 33,500  Descending FlightAware UK
Sun 04:55:39 PM 51.7850 -1.9624 100° East 497 572 35,000  Climbing FlightAware ADS-B
Sun 04:55:56 PM 51.7771 -1.8987 100° East 474 545 33,500  Descending FlightAware UK
Sun 04:56:09 PM 51.7710 -1.8524 100° East 496 571 35,000  Climbing FlightAware ADS-B
Sun 04:56:26 PM 51.7631 -1.7902 100° East 476 548 33,500 600 Descending FlightAware UK
Sun 04:56:39 PM 51.7567 -1.7414 100° East 500 575 35,300 1,000 Climbing FlightAware ADS-B
Sun 04:56:56 PM 51.7490 -1.6808 100° East 478 550 34,000 938 Descending FlightAware UK
Sun 04:57:11 PM 51.7420 -1.6283 100° East 502 578 35,800 1,167 Climbing FlightAware ADS-B
Sun 04:57:32 PM 51.7317 -1.5495 100° East 476 548 34,700 1,000 Descending FlightAware UK
Sun 04:57:41 PM 51.7274 -1.5170 100° East 505 581 36,300 750 Climbing FlightAware ADS-B
Sun 04:57:56 PM 51.7200 -1.4603 100° East 476 548 35,000 968 Descending FlightAware UK
Sun 04:58:12 PM 51.7122 -1.4036 100° East 509 586 36,800 833 Climbing FlightAware ADS-B
Sun 04:58:32 PM 51.7021 -1.3274 100° East 482 555 35,500 400 Descending FlightAware UK
Sun 04:58:42 PM 51.6971 -1.2905 100° East 512 589 37,000  Climbing FlightAware ADS-B
Sun 04:59:02 PM 51.6870 -1.2159 100° East 480 552 35,500  Descending FlightAware UK
Sun 04:59:13 PM 51.6819 -1.1783 100° East 512 589 37,000  Climbing FlightAware ADS-B
Sun 04:59:32 PM 51.6718 -1.1037 100° East 482 555 35,500  Descending FlightAware UK
Sun 04:59:43 PM 51.6665 -1.0651 100° East 513 590 37,000  Climbing FlightAware ADS-B
Sun 05:00:03 PM 51.6565 -0.9914 100° East 484 557 35,500  Descending FlightAware UK
Sun 05:00:13 PM 51.6513 -0.9532 100° East 512 589 37,000  Climbing FlightAware ADS-B
Sun 05:00:33 PM 51.6414 -0.8799 100° East 482 555 35,500  Descending FlightAware UK
Sun 05:00:43 PM 51.6359 -0.8411 100° East 512 589 37,000  Climbing FlightAware ADS-B
Sun 05:01:02 PM 51.6259 -0.7694 100° East 482 555 35,500  Descending FlightAware UK
Sun 05:01:14 PM 51.6202 -0.7284 100° East 512 589 37,000  Climbing FlightAware ADS-B
Sun 05:01:33 PM 51.6104 -0.6578 100° East 482 555 35,500  Descending FlightAware UK
Sun 05:01:45 PM 51.6042 -0.6136 100° East 513 590 37,000 -200 Climbing FlightAware ADS-B
Sun 05:02:03 PM 51.5947 -0.5468 100° East 482 555 35,400  Descending FlightAware UK
Sun 05:02:15 PM 51.5882 -0.5000 100° East 512 589 37,000  Climbing FlightAware ADS-B
Sun 05:02:33 PM 51.5790 -0.4350 100° East 482 555 35,400  Descending FlightAware UK
Sun 05:02:47 PM 51.5717 -0.3839 100° East 511 588 37,000  Climbing FlightAware ADS-B
Sun 05:03:09 PM 51.5596 -0.3016 100° East 484 557 35,400  Descending FlightAware UK
Sun 05:03:18 PM 51.5551 -0.2681 100° East 510 587 37,000  Climbing FlightAware ADS-B
Sun 05:03:33 PM 51.5472 -0.2126 100° East 486 559 35,400  Descending FlightAware UK
Sun 05:03:49 PM 51.5389 -0.1563 100° East 509 586 37,000  Climbing FlightAware ADS-B
Sun 05:04:09 PM 51.5278 -0.0809 100° East 484 557 35,400  Descending FlightAware UK
Sun 05:04:19 PM 51.5227 -0.0445 100° East 508 585 37,000  Climbing FlightAware ADS-B
Sun 05:04:39 PM 51.5119 0.0288 100° East 482 555 35,400  Descending FlightAware UK
Sun 05:04:49 PM 51.5065 0.0666 100° East 507 583 37,000  Climbing FlightAware ADS-B
Sun 05:05:09 PM 51.4957 0.1399 100° East 478 550 35,400  Descending FlightAware UK
Sun 05:05:20 PM 51.4902 0.1776 100° East 507 583 37,000  Climbing FlightAware ADS-B
Sun 05:05:39 PM 51.4795 0.2494 100° East 478 550 35,400  Descending FlightAware UK
Sun 05:05:50 PM 51.4737 0.2882 100° East 508 585 37,000  Climbing FlightAware ADS-B
Sun 05:06:09 PM 51.4632 0.3588 100° East 480 552 35,400  Descending FlightAware UK
Sun 05:06:21 PM 51.4571 0.3996 100° East 508 585 37,000  Climbing FlightAware ADS-B
Sun 05:06:39 PM 51.4468 0.4684 100° East 480 552 35,400  Descending FlightAware UK
Sun 05:06:51 PM 51.4404 0.5106 100° East 509 586 37,000  Climbing FlightAware ADS-B
Sun 05:07:09 PM 51.4302 0.5780 100° East 480 552 35,400  Descending FlightAware UK
Sun 05:07:22 PM 51.4232 0.6238 100° East 509 586 37,000  Climbing FlightAware ADS-B
Sun 05:07:39 PM 51.4135 0.6875 100° East 482 555 35,400  Descending FlightAware UK
Sun 05:07:53 PM 51.4063 0.7351 100° East 510 587 37,000  Climbing FlightAware ADS-B
Sun 05:08:09 PM 51.3969 0.7971 100° East 484 557 35,400  Descending FlightAware UK
Sun 05:08:23 PM 51.3893 0.8452 100° East 509 586 37,000  Climbing FlightAware ADS-B
Sun 05:08:39 PM 51.3798 0.9064 100° East 486 559 35,400  Descending FlightAware UK
Sun 05:08:53 PM 51.3723 0.9551 100° East 508 585 37,000  Climbing FlightAware ADS-B
Sun 05:09:10 PM 51.3627 1.0161 100° East 482 555 35,400  Descending FlightAware UK
Sun 05:09:23 PM 51.3552 1.0647 100° East 507 583 37,000  Climbing FlightAware ADS-B
Sun 05:09:40 PM 51.3456 1.1257 100° East 478 550 35,400  Descending FlightAware UK
Sun 05:09:53 PM 51.3381 1.1735 100° East 507 583 37,000  Climbing FlightAware ADS-B
Sun 05:10:10 PM 51.3286 1.2336 100° East 478 550 35,400  Descending FlightAware UK
Sun 05:10:24 PM 51.3208 1.2834 100° East 509 586 37,000  Climbing FlightAware ADS-B
Sun 05:10:40 PM 51.3115 1.3425 100° East 482 555 35,400 -2,824 Descending FlightAware UK
Sun 05:10:58 PM 51.3010 1.4078 104° East 484 557 35,400 5,333 Level FlightAware UK
Sun 05:10:58 PM 51.3009 1.4072 104° East 509 586 37,000  Climbing FlightAware ADS-B
Sun 05:11:16 PM 51.2879 1.4730 104° East 484 557 35,400  Descending FlightAware UK
Sun 05:11:30 PM 51.2763 1.5239 104° East 510 587 37,000  Climbing FlightAware ADS-B
Sun 05:11:46 PM 51.2630 1.5787 104° East 482 555 35,400 -2,824 Descending FlightAware UK
Sun 05:12:04 PM 51.2468 1.6414 112° Southeast 482 555 35,400 4,364 Level FlightAware UK
Sun 05:12:08 PM 51.2430 1.6535 112° Southeast 512 589 37,000  Climbing FlightAware ADS-B
Sun 05:12:28 PM 51.2240 1.7248 112° Southeast 480 552 35,400  Descending FlightAware UK
Sun 05:12:38 PM 51.2140 1.7597 112° Southeast 512 589 37,000  Climbing FlightAware ADS-B
Sun 05:13:04 PM 51.1893 1.8494 112° Southeast 480 552 35,400  Descending FlightAware UK
Sun 05:13:10 PM 51.1837 1.8682 112° Southeast 514 592 37,000 250 Climbing FlightAware ADS-B
Sun 05:13:28 PM 51.1660 1.9319 112° Southeast 482 555 35,500  Descending FlightAware UK
Sun 05:13:41 PM 51.1537 1.9741 112° Southeast 514 592 37,000 -200 Climbing FlightAware ADS-B
Sun 05:13:58 PM 51.1365 2.0348 112° Southeast 482 555 35,400  Descending FlightAware UK
Sun 05:14:11 PM 51.1239 2.0786 112° Southeast 513 590 37,000  Climbing FlightAware ADS-B
Sun 05:14:28 PM 51.1070 2.1375 112° Southeast 486 559 35,400 -2,743 Descending FlightAware UK
Sun 05:14:46 PM 51.0894 2.1983 115° Southeast 486 559 35,400 4,571 Level FlightAware UK
Sun 05:14:49 PM 51.0870 2.2068 115° Southeast 511 588 37,000  Climbing FlightAware ADS-B
Sun 05:15:04 PM 51.0715 2.2604 115° Southeast 486 559 35,400  Descending FlightAware UK
Sun 05:15:19 PM 51.0574 2.3093 115° Southeast 511 588 37,000  Climbing FlightAware ADS-B
Sun 05:15:34 PM 51.0419 2.3633 115° Southeast 482 555 35,400  Descending FlightAware UK
Sun 05:15:49 PM 51.0273 2.4128 115° Southeast 510 587 37,000  Climbing FlightAware ADS-B
Sun 05:16:04 PM 51.0122 2.4649 115° Southeast 484 557 35,400  Descending FlightAware UK
Sun 05:16:22 PM 50.9953 2.5228 115° Southeast 509 586 37,000  Climbing FlightAware ADS-B
Sun 05:16:41 PM 50.9767 2.5873 115° Southeast 482 555 35,400 -2,595 Descending FlightAware UK
Sun 05:16:59 PM 50.9588 2.6479 115° Southeast 484 557 35,400  Level FlightAware UK
Sun 05:17:17 PM 50.9409 2.7085 115° Southeast 488 562 35,400 5,333 Level FlightAware UK
Sun 05:17:17 PM 50.9450 2.6960 115° Southeast 508 585 37,000  Climbing FlightAware ADS-B
Sun 05:17:35 PM 50.9231 2.7691 115° Southeast 484 557 35,400 -2,667 Descending FlightAware UK
Sun 05:17:53 PM 50.9052 2.8293 115° Southeast 484 557 35,400 4,364 Level FlightAware UK
Sun 05:17:57 PM 50.9030 2.8370 115° Southeast 505 581 37,000  Climbing FlightAware ADS-B
Sun 05:18:17 PM 50.8817 2.9097 115° Southeast 490 564 35,400 -2,526 Descending FlightAware UK
Sun 05:18:35 PM 50.8639 2.9697 115° Southeast 486 559 35,400 3,840 Level FlightAware UK
Sun 05:18:42 PM 50.8590 2.9850 115° Southeast 501 577 37,000  Climbing FlightAware ADS-B
Sun 05:18:59 PM 50.8402 3.0492 115° Southeast 484 557 35,400 -2,743 Descending FlightAware UK
Sun 05:19:17 PM 50.8226 3.1084 115° Southeast 482 555 35,400 4,174 Level FlightAware UK
Sun 05:19:22 PM 50.8200 3.1160 115° Southeast 498 573 37,000  Climbing FlightAware ADS-B
Sun 05:19:41 PM 50.7990 3.1878 115° Southeast 480 552 35,400 -2,595 Descending FlightAware UK
Sun 05:19:59 PM 50.7811 3.2465 116° Southeast 478 550 35,400 3,692 Level FlightAware UK
Sun 05:20:07 PM 50.7750 3.2670 116° Southeast 498 573 37,000  Climbing FlightAware ADS-B
Sun 05:20:29 PM 50.7514 3.3446 116° Southeast 480 552 35,400 -2,400 Descending FlightAware UK
Sun 05:20:47 PM 50.7334 3.4034 116° Southeast 486 559 35,400 5,333 Level FlightAware UK
Sun 05:20:47 PM 50.7350 3.3980 116° Southeast 498 573 37,000 -1,000 Climbing FlightAware ADS-B
Sun 05:21:05 PM 50.7156 3.4622 116° Southeast 476 548 35,100 -4,167 Descending FlightAware UK
Sun 05:21:23 PM 50.6980 3.5208 115° Southeast 474 545 34,500 2,455 Descending FlightAware UK
Sun 05:21:27 PM 50.6960 3.5280 115° Southeast 491 565 36,000 -2,000 Climbing FlightAware ADS-B
Sun 05:21:47 PM 50.6744 3.5977 115° Southeast 468 539 33,700 -4,579 Descending FlightAware UK
Sun 05:22:05 PM 50.6571 3.6553 115° Southeast 470 541 33,100 1,920 Descending FlightAware UK
Sun 05:22:12 PM 50.6530 3.6700 115° Southeast 486 559 34,500 -2,000 Climbing FlightAware ADS-B
Sun 05:22:29 PM 50.6340 3.7318 115° Southeast 468 539 32,300 -4,800 Descending FlightAware UK
Sun 05:22:47 PM 50.6167 3.7883 116° Southeast 472 543 31,700 2,348 Descending FlightAware UK
Sun 05:22:52 PM 50.6150 3.7940 116° Southeast 475 547 33,200 -1,750 Climbing FlightAware ADS-B
Sun 05:23:11 PM 50.5937 3.8618 116° Southeast 466 536 31,000 -4,541 Descending FlightAware UK
Sun 05:23:29 PM 50.5769 3.9164 116° Southeast 466 536 30,400 1,846 Descending FlightAware UK
Sun 05:23:37 PM 50.5710 3.9360 116° Southeast 460 529 31,800 -1,750 Climbing FlightAware ADS-B
Sun 05:23:53 PM 50.5544 3.9876 116° Southeast 1 1 29,700 -4,412 Descending FlightAware UK
Sun 05:24:11 PM 50.5373 4.0390 117° Southeast 1 1 29,300 2,500 Descending FlightAware UK
Sun 05:24:17 PM 50.5340 4.0530 117° Southeast 445 512 30,700 -2,000 Climbing FlightAware ADS-B
Sun 05:24:35 PM 50.5159 4.1087 117° Southeast 1 1 28,500 -4,333 Descending FlightAware UK
Sun 05:24:53 PM 50.5002 4.1606 115° Southeast 1 1 28,100 2,222 Descending FlightAware UK
Sun 05:25:02 PM 50.4950 4.1800 115° Southeast 430 495 29,500 -1,750 Climbing FlightAware ADS-B
Sun 05:25:17 PM 50.4798 4.2285 115° Southeast 1 1 27,400 -4,727 Descending FlightAware UK
Sun 05:25:35 PM 50.4652 4.2812 114° Southeast 1 1 26,900 2,400 Descending FlightAware UK
Sun 05:25:42 PM 50.4610 4.2890 114° Southeast 419 482 28,400 -1,571 Climbing FlightAware ADS-B
Sun 05:26:17 PM 50.4261 4.3856 114° Southeast 1 1 25,800 -1,650 Descending FlightAware UK
Sun 05:26:22 PM 50.4270 4.3980 114° Southeast 407 468 27,300 -1,500 Climbing FlightAware ADS-B
Sun 05:26:41 PM 50.4111 4.4551 114° Southeast 1 1 25,200 -4,054 Descending FlightAware UK
Sun 05:26:59 PM 50.3930 4.4982 123° Southeast 1 1 24,800 2,077 Descending FlightAware UK
Sun 05:27:07 PM 50.3900 4.5150 123° Southeast 395 455 26,100 -1,800 Climbing FlightAware ADS-B
Sun 05:27:29 PM 50.3712 4.5804 123° Southeast 1 1 23,900 -1,650 Descending FlightAware UK
Sun 05:27:47 PM 50.3570 4.6180 123° Southeast 385 443 25,000 -190 Climbing FlightAware ADS-B
Sun 05:28:32 PM 50.3230 4.7260 116° Southeast 377 434 23,700 -1,694 Descending FlightAware ADS-B
Sun 05:29:12 PM 50.2920 4.8220 117° Southeast 369 425 22,600 -1,725 Descending FlightAware ADS-B
Sun 05:29:52 PM 50.2620 4.9160 117° Southeast 364 419 21,400 -1,765 Descending FlightAware ADS-B
Sun 05:30:37 PM 50.2270 5.0230 117° Southeast 358 412 20,100 -1,694 Descending FlightAware ADS-B
Sun 05:31:17 PM 50.1970 5.1150 117° Southeast 353 406 19,000 -1,553 Descending FlightAware ADS-B
Sun 05:32:02 PM 50.1680 5.2070 116° Southeast 348 400 17,900 -1,553 Descending FlightAware ADS-B
Sun 05:32:42 PM 50.1380 5.2960 118° Southeast 340 391 16,800 -1,642 Descending FlightAware ADS-B
Sun 05:33:37 PM 50.0990 5.4150 117° Southeast 334 384 15,300 -1,642 Descending FlightAware ADS-B
Sun 05:34:17 PM 50.0700 5.5040 117° Southeast 330 380 14,200 -1,624 Descending FlightAware ADS-B
Sun 05:35:02 PM 50.0400 5.5970 117° Southeast 328 377 13,000 -1,680 Descending FlightAware ADS-B
Sun 05:35:57 PM 50.0010 5.7120 118° Southeast 325 374 11,400 -1,642 Descending FlightAware ADS-B
Sun 05:36:37 PM 49.9730 5.7960 117° Southeast 320 368 10,400 -1,059 Descending FlightAware ADS-B
Sun 05:37:22 PM 49.9450 5.8830 117° Southeast 292 336 9,900 -800 Descending FlightAware ADS-B
Sun 05:37:52 PM 49.9270 5.9380 117° Southeast 284 327 9,400 -1,200 Descending FlightAware ADS-B
Sun 05:38:17 PM 49.9120 5.9840 117° Southeast 279 321 8,800 -1,350 Descending FlightAware ADS-B
Sun 05:38:32 PM 49.9040 6.0090 116° Southeast 281 323 8,500 -1,200 Descending FlightAware ADS-B
Sun 05:39:02 PM 49.8860 6.0620 118° Southeast 278 320 7,900 -1,114 Descending FlightAware ADS-B
Sun 05:39:42 PM 49.8610 6.1330 119° Southeast 260 299 7,200 -857 Descending FlightAware ADS-B
Sun 05:40:12 PM 49.8450 6.1780 119° Southeast 249 287 6,900 -857 Descending FlightAware ADS-B
Sun 05:40:52 PM 49.8230 6.2410 118° Southeast 242 278 6,200 -1,108 Descending FlightAware ADS-B
Sun 05:41:17 PM 49.8110 6.2770 117° Southeast 241 277 5,700 -600 Descending FlightAware ADS-B
Sun 05:41:42 PM 49.7980 6.3150 118° Southeast 241 277 5,700 -1,091 Level FlightAware ADS-B
Sun 05:42:12 PM 49.7710 6.3550 136° Southeast 236 272 4,700 -1,091 Descending FlightAware ADS-B
Sun 05:42:37 PM 49.7550 6.3830 131° Southeast 236 272 4,700  Level FlightAware ADS-B
Sun 05:45:00 PM 49.6266 6.2115 221° Southwest  Level Estimated
Sun 05:46:00 PM 49.6266 6.2115 201° Southwest  Level Estimated
Sun 05:47:00 PM 49.6266 6.2115 201° Southwest  Level Estimated
Sun 05:48:00 PM 49.6266 6.2115 201° Southwest  Level Estimated
Sun 05:49:00 PM 49.6266 6.2115 201° Southwest  Level Estimated
Sun 05:50:00 PM 49.6266 6.2115 201° Southwest  Level Estimated
Sun 05:51:00 PM 49.6266 6.2115 201° Southwest  Level Estimated
Sun 05:52:00 PM 49.6266 6.2115 201° Southwest  Level Estimated
Sun 05:53:00 PM 49.6266 6.2115 201° Southwest  Level Estimated
Sun 05:54:00 PM 49.6266 6.2115 201° Southwest  Level Estimated
Sun 05:55:00 PM 49.6266 6.2115 201° Southwest  Level Estimated
Sun 05:56:00 PM 49.6266 6.2115 201° Southwest  Level Estimated
Sun 05:57:00 PM 49.6266 6.2115 201° Southwest  Level Estimated
Sun 05:58:00 PM 49.6266 6.2115 201° Southwest  Level Estimated
Sun 05:59:00 PM 49.6266 6.2115 201° Southwest  Level Estimated
Sun 06:00:00 PM 49.6266 6.2115 201° Southwest  Level Estimated

Login

Don't have an account? Register now (free) for customized features, flight alerts, and more!